Observation data for Van Horn on 08/12/2020      Previous  Date       Current Mesonet Observations  Soil Data  Daily Summary Page  Observations in Plain Language
KVA1 120500Z 23006KT 27/14 A3002 RMK A01 T02730142  RH  044%=      5-min Rain = 0
KVA1 120501Z 22005KT 27/14 A3002 RMK A01 T02730143  RH  045%=      5-min Rain = 0
KVA1 120502Z 22005KT 27/14 A3002 RMK A01 T02720143  RH  045%=      5-min Rain = 0
KVA1 120503Z 23005KT 27/15 A3002 RMK A01 T02720145  RH  046%=      5-min Rain = 0
KVA1 120504Z 23005KT 27/15 A3002 RMK A01 T02700145  RH  046%=      5-min Rain = 0
KVA1 120505Z 22004KT 27/15 A3002 RMK A01 T02690147  RH  047%=      5-min Rain = 0
KVA1 120506Z 22003KT 27/15 A3002 RMK A01 T02680148  RH  048%=      5-min Rain = 0
KVA1 120507Z 22002KT 27/15 A3002 RMK A01 T02670147  RH  048%=      5-min Rain = 0
KVA1 120508Z 18001KT 27/15 A3002 RMK A01 T02660148  RH  048%=      5-min Rain = 0
KVA1 120509Z 21002KT 26/15 A3002 RMK A01 T02640150  RH  049%=      5-min Rain = 0
KVA1 120510Z 24002KT 26/15 A3002 RMK A01 T02640149  RH  049%=      5-min Rain = 0
KVA1 120511Z 24004KT 26/15 A3002 RMK A01 T02640148  RH  049%=      5-min Rain = 0
KVA1 120512Z 23004KT 26/15 A3002 RMK A01 T02630148  RH  049%=      5-min Rain = 0
KVA1 120513Z 23003KT 26/15 A3002 RMK A01 T02630149  RH  049%=      5-min Rain = 0
KVA1 120514Z 15002KT 26/16 A3002 RMK A01 T02630156  RH  052%=      5-min Rain = 0
KVA1 120515Z 17002KT 26/16 A3002 RMK A01 T02610156  RH  052%=      5-min Rain = 0
KVA1 120516Z 21002KT 26/15 A3002 RMK A01 T02600151  RH  051%=      5-min Rain = 0
KVA1 120517Z 20002KT 26/15 A3002 RMK A01 T02590152  RH  051%=      5-min Rain = 0
KVA1 120518Z 15002KT 26/15 A3002 RMK A01 T02590153  RH  052%=      5-min Rain = 0
KVA1 120519Z 19001KT 26/15 A3002 RMK A01 T02580153  RH  052%=      5-min Rain = 0
KVA1 120520Z 25002KT 26/15 A3002 RMK A01 T02580151  RH  052%=      5-min Rain = 0
KVA1 120521Z 25002KT 26/15 A3002 RMK A01 T02580153  RH  052%=      5-min Rain = 0
KVA1 120522Z 24000KT 26/16 A3002 RMK A01 T02580158  RH  054%=      5-min Rain = 0
KVA1 120523Z 15000KT 26/15 A3002 RMK A01 T02570154  RH  053%=      5-min Rain = 0
KVA1 120524Z 16000KT 26/15 A3002 RMK A01 T02560151  RH  052%=      5-min Rain = 0
KVA1 120525Z 24000KT 26/15 A3002 RMK A01 T02560147  RH  051%=      5-min Rain = 0
KVA1 120526Z 25002KT 26/14 A3002 RMK A01 T02570142  RH  049%=      5-min Rain = 0
KVA1 120527Z 24002KT 26/14 A3002 RMK A01 T02590144  RH  049%=      5-min Rain = 0
KVA1 120528Z 27001KT 26/15 A3002 RMK A01 T02610145  RH  049%=      5-min Rain = 0
KVA1 120529Z 25000KT 26/15 A3002 RMK A01 T02620149  RH  050%=      5-min Rain = 0
KVA1 120530Z 00000KT 26/16 A3002 RMK A01 T02610157  RH  052%=      5-min Rain = 0
KVA1 120531Z 27000KT 26/14 A3002 RMK A01 T02610144  RH  048%=      5-min Rain = 0
KVA1 120532Z 28001KT 26/14 A3002 RMK A01 T02610143  RH  048%=      5-min Rain = 0
KVA1 120533Z 26001KT 26/15 A3002 RMK A01 T02610150  RH  050%=      5-min Rain = 0
KVA1 120534Z 27001KT 26/15 A3003 RMK A01 T02620147  RH  049%=      5-min Rain = 0
KVA1 120535Z 27001KT 26/15 A3003 RMK A01 T02610149  RH  050%=      5-min Rain = 0
KVA1 120536Z 26001KT 26/15 A3003 RMK A01 T02620152  RH  051%=      5-min Rain = 0
KVA1 120537Z 29001KT 26/16 A3003 RMK A01 T02610158  RH  053%=      5-min Rain = 0
KVA1 120538Z 27001KT 26/15 A3003 RMK A01 T02590147  RH  050%=      5-min Rain = 0
KVA1 120539Z 25001KT 26/15 A3003 RMK A01 T02580146  RH  050%=      5-min Rain = 0
KVA1 120540Z 24002KT 26/15 A3003 RMK A01 T02590147  RH  050%=      5-min Rain = 0
KVA1 120541Z 25001KT 26/15 A3003 RMK A01 T02590152  RH  052%=      5-min Rain = 0
KVA1 120542Z 24002KT 26/15 A3003 RMK A01 T02580149  RH  051%=      5-min Rain = 0
KVA1 120543Z 24002KT 26/15 A3003 RMK A01 T02580147  RH  050%=      5-min Rain = 0
KVA1 120544Z 24004KT 26/15 A3003 RMK A01 T02580148  RH  051%=      5-min Rain = 0
KVA1 120545Z 24004KT 26/15 A3003 RMK A01 T02590151  RH  051%=      5-min Rain = 0
KVA1 120546Z 24005KT 26/15 A3003 RMK A01 T02580153  RH  052%=      5-min Rain = 0
KVA1 120547Z 23006KT 26/15 A3003 RMK A01 T02560154  RH  053%=      5-min Rain = 0
KVA1 120548Z 23005KT 25/16 A3003 RMK A01 T02540155  RH  054%=      5-min Rain = 0
KVA1 120549Z 23005KT 25/16 A3003 RMK A01 T02530156  RH  055%=      5-min Rain = 0
KVA1 120550Z 23006KT 25/16 A3003 RMK A01 T02510157  RH  056%=      5-min Rain = 0
KVA1 120551Z 23006KT 25/16 A3003 RMK A01 T02500155  RH  055%=      5-min Rain = 0
KVA1 120552Z 23006KT 25/15 A3003 RMK A01 T02500152  RH  055%=      5-min Rain = 0
KVA1 120553Z 23005KT 25/15 A3003 RMK A01 T02510152  RH  054%=      5-min Rain = 0
KVA1 120554Z 23005KT 25/15 A3003 RMK A01 T02510152  RH  054%=      5-min Rain = 0
KVA1 120555Z 23005KT 25/15 A3003 RMK A01 T02510152  RH  054%=      5-min Rain = 0
KVA1 120556Z 23005KT 25/15 A3003 RMK A01 T02510152  RH  054%=      5-min Rain = 0
KVA1 120557Z 23005KT 25/15 A3003 RMK A01 T02510152  RH  054%=      5-min Rain = 0
KVA1 120558Z 24004KT 25/15 A3003 RMK A01 T02510152  RH  054%=      5-min Rain = 0
KVA1 120559Z 23005KT 25/15 A3003 RMK A01 T02510152  RH  054%=      5-min Rain = 0
KVA1 120600Z 24004KT 25/15 A3003 RMK A01 T02500152  RH  055%=      5-min Rain = 0
KVA1 120601Z 23005KT 25/15 A3003 RMK A01 T02500151  RH  054%=      5-min Rain = 0
KVA1 120602Z 23004KT 25/15 A3003 RMK A01 T02500150  RH  054%=      5-min Rain = 0
KVA1 120603Z 24004KT 25/15 A3003 RMK A01 T02500150  RH  054%=      5-min Rain = 0
KVA1 120604Z 24004KT 25/15 A3003 RMK A01 T02500150  RH  054%=      5-min Rain = 0
KVA1 120605Z 24004KT 25/15 A3003 RMK A01 T02490151  RH  055%=      5-min Rain = 0
KVA1 120606Z 24005KT 25/15 A3003 RMK A01 T02490153  RH  055%=      5-min Rain = 0
KVA1 120607Z 24005KT 25/15 A3003 RMK A01 T02480152  RH  055%=      5-min Rain = 0
KVA1 120608Z 23005KT 25/15 A3003 RMK A01 T02480152  RH  055%=      5-min Rain = 0
KVA1 120609Z 23004KT 25/15 A3003 RMK A01 T02470152  RH  055%=      5-min Rain = 0
KVA1 120610Z 23005KT 25/15 A3003 RMK A01 T02480151  RH  055%=      5-min Rain = 0
KVA1 120611Z 22004KT 25/15 A3003 RMK A01 T02470150  RH  055%=      5-min Rain = 0
KVA1 120612Z 22004KT 25/15 A3003 RMK A01 T02480149  RH  054%=      5-min Rain = 0
KVA1 120613Z 22005KT 25/15 A3003 RMK A01 T02480149  RH  054%=      5-min Rain = 0
KVA1 120614Z 22004KT 25/15 A3003 RMK A01 T02490147  RH  053%=      5-min Rain = 0
KVA1 120615Z 23004KT 25/15 A3003 RMK A01 T02490146  RH  053%=      5-min Rain = 0
KVA1 120616Z 23003KT 25/15 A3003 RMK A01 T02510146  RH  052%=      5-min Rain = 0
KVA1 120617Z 24004KT 25/15 A3003 RMK A01 T02510146  RH  052%=      5-min Rain = 0
KVA1 120618Z 25003KT 25/15 A3003 RMK A01 T02520145  RH  051%=      5-min Rain = 0
KVA1 120619Z 26002KT 25/15 A3003 RMK A01 T02530146  RH  052%=      5-min Rain = 0
KVA1 120620Z 26002KT 25/14 A3003 RMK A01 T02530144  RH  051%=      5-min Rain = 0
KVA1 120621Z 26003KT 25/14 A3003 RMK A01 T02540143  RH  050%=      5-min Rain = 0
KVA1 120622Z 25003KT 26/14 A3003 RMK A01 T02550141  RH  049%=      5-min Rain = 0
KVA1 120623Z 25003KT 26/14 A3003 RMK A01 T02560142  RH  049%=      5-min Rain = 0
KVA1 120624Z 24003KT 26/14 A3003 RMK A01 T02570141  RH  049%=      5-min Rain = 0
KVA1 120625Z 24002KT 26/14 A3003 RMK A01 T02580141  RH  048%=      5-min Rain = 0
KVA1 120626Z 23002KT 26/14 A3003 RMK A01 T02580140  RH  048%=      5-min Rain = 0
KVA1 120627Z 22003KT 26/14 A3003 RMK A01 T02590139  RH  048%=      5-min Rain = 0
KVA1 120628Z 23003KT 26/14 A3003 RMK A01 T02590140  RH  048%=      5-min Rain = 0
KVA1 120629Z 22003KT 26/14 A3003 RMK A01 T02600139  RH  047%=      5-min Rain = 0
KVA1 120630Z 22002KT 26/14 A3003 RMK A01 T02600137  RH  046%=      5-min Rain = 0
KVA1 120631Z 22004KT 26/14 A3003 RMK A01 T02610138  RH  046%=      5-min Rain = 0
KVA1 120632Z 22004KT 26/14 A3003 RMK A01 T02620136  RH  046%=      5-min Rain = 0
KVA1 120633Z 22004KT 26/14 A3003 RMK A01 T02630135  RH  045%=      5-min Rain = 0
KVA1 120634Z 23004KT 26/14 A3004 RMK A01 T02640136  RH  045%=      5-min Rain = 0
KVA1 120635Z 23004KT 26/14 A3004 RMK A01 T02640137  RH  045%=      5-min Rain = 0
KVA1 120636Z 24004KT 26/14 A3004 RMK A01 T02640137  RH  046%=      5-min Rain = 0
KVA1 120637Z 25004KT 26/14 A3004 RMK A01 T02630137  RH  046%=      5-min Rain = 0
KVA1 120638Z 25004KT 26/14 A3004 RMK A01 T02630137  RH  046%=      5-min Rain = 0
KVA1 120639Z 25004KT 26/14 A3004 RMK A01 T02620137  RH  046%=      5-min Rain = 0
KVA1 120640Z 25003KT 26/14 A3004 RMK A01 T02620136  RH  046%=      5-min Rain = 0
KVA1 120641Z 24003KT 26/14 A3004 RMK A01 T02620136  RH  046%=      5-min Rain = 0
KVA1 120642Z 26002KT 26/14 A3003 RMK A01 T02610136  RH  046%=      5-min Rain = 0
KVA1 120643Z 26002KT 26/14 A3003 RMK A01 T02620135  RH  046%=      5-min Rain = 0
KVA1 120644Z 25002KT 26/14 A3003 RMK A01 T02630138  RH  046%=      5-min Rain = 0
KVA1 120645Z 25002KT 26/14 A3003 RMK A01 T02620136  RH  046%=      5-min Rain = 0
KVA1 120646Z 25003KT 26/14 A3003 RMK A01 T02620135  RH  046%=      5-min Rain = 0
KVA1 120647Z 26003KT 26/13 A3004 RMK A01 T02620133  RH  045%=      5-min Rain = 0
KVA1 120648Z 25002KT 26/13 A3004 RMK A01 T02640133  RH  044%=      5-min Rain = 0
KVA1 120649Z 26003KT 26/13 A3004 RMK A01 T02640134  RH  045%=      5-min Rain = 0
KVA1 120650Z 26002KT 26/13 A3004 RMK A01 T02640134  RH  045%=      5-min Rain = 0
KVA1 120651Z 25003KT 27/14 A3004 RMK A01 T02650135  RH  045%=      5-min Rain = 0
KVA1 120652Z 24003KT 26/14 A3004 RMK A01 T02640135  RH  045%=      5-min Rain = 0
KVA1 120653Z 24003KT 26/13 A3004 RMK A01 T02640134  RH  045%=      5-min Rain = 0
KVA1 120654Z 24002KT 26/13 A3004 RMK A01 T02640134  RH  045%=      5-min Rain = 0
KVA1 120655Z 23002KT 26/14 A3004 RMK A01 T02640135  RH  045%=      5-min Rain = 0
KVA1 120656Z 22003KT 26/13 A3004 RMK A01 T02640133  RH  044%=      5-min Rain = 0
KVA1 120657Z 22003KT 26/14 A3004 RMK A01 T02640135  RH  045%=      5-min Rain = 0
KVA1 120658Z 22003KT 26/14 A3004 RMK A01 T02640135  RH  045%=      5-min Rain = 0
KVA1 120659Z 21003KT 26/14 A3004 RMK A01 T02640136  RH  045%=      5-min Rain = 0
KVA1 120700Z 22001KT 26/14 A3004 RMK A01 T02640137  RH  045%=      5-min Rain = 0
KVA1 120701Z 22001KT 26/14 A3004 RMK A01 T02640135  RH  045%=      5-min Rain = 0
KVA1 120702Z 23002KT 26/14 A3003 RMK A01 T02630136  RH  045%=      5-min Rain = 0
KVA1 120703Z 22002KT 26/14 A3003 RMK A01 T02630137  RH  046%=      5-min Rain = 0
KVA1 120704Z 23002KT 26/13 A3003 RMK A01 T02630134  RH  045%=      5-min Rain = 0
KVA1 120705Z 22003KT 26/13 A3003 RMK A01 T02640133  RH  044%=      5-min Rain = 0
KVA1 120706Z 23003KT 26/13 A3003 RMK A01 T02640133  RH  044%=      5-min Rain = 0
KVA1 120707Z 23002KT 27/13 A3003 RMK A01 T02650131  RH  044%=      5-min Rain = 0
KVA1 120708Z 24002KT 27/13 A3003 RMK A01 T02660132  RH  044%=      5-min Rain = 0
KVA1 120709Z 25002KT 27/13 A3003 RMK A01 T02660134  RH  044%=      5-min Rain = 0
KVA1 120710Z 25003KT 27/13 A3003 RMK A01 T02660132  RH  043%=      5-min Rain = 0
KVA1 120711Z 26002KT 27/13 A3004 RMK A01 T02660132  RH  043%=      5-min Rain = 0
KVA1 120712Z 27002KT 27/13 A3004 RMK A01 T02660132  RH  043%=      5-min Rain = 0
KVA1 120713Z 24003KT 27/13 A3004 RMK A01 T02660131  RH  043%=      5-min Rain = 0
KVA1 120714Z 24002KT 27/13 A3004 RMK A01 T02660131  RH  043%=      5-min Rain = 0
KVA1 120715Z 27002KT 27/13 A3004 RMK A01 T02670131  RH  043%=      5-min Rain = 0
KVA1 120716Z 28002KT 27/13 A3004 RMK A01 T02680131  RH  043%=      5-min Rain = 0
KVA1 120717Z 29002KT 27/13 A3004 RMK A01 T02670131  RH  043%=      5-min Rain = 0
KVA1 120718Z 30002KT 27/13 A3004 RMK A01 T02670131  RH  043%=      5-min Rain = 0
KVA1 120719Z 28002KT 27/13 A3004 RMK A01 T02670131  RH  043%=      5-min Rain = 0
KVA1 120720Z 30003KT 27/13 A3004 RMK A01 T02670130  RH  043%=      5-min Rain = 0
KVA1 120721Z 32003KT 27/13 A3004 RMK A01 T02660131  RH  043%=      5-min Rain = 0
KVA1 120722Z 31003KT 27/13 A3004 RMK A01 T02660130  RH  043%=      5-min Rain = 0
KVA1 120723Z 31002KT 27/13 A3004 RMK A01 T02660129  RH  043%=      5-min Rain = 0
KVA1 120724Z 30002KT 27/13 A3004 RMK A01 T02670129  RH  043%=      5-min Rain = 0
KVA1 120725Z 31002KT 27/13 A3004 RMK A01 T02670128  RH  042%=      5-min Rain = 0
KVA1 120726Z 30002KT 27/13 A3004 RMK A01 T02670128  RH  042%=      5-min Rain = 0
KVA1 120727Z 32003KT 27/13 A3004 RMK A01 T02670129  RH  042%=      5-min Rain = 0
KVA1 120728Z 31002KT 27/13 A3004 RMK A01 T02670130  RH  043%=      5-min Rain = 0
KVA1 120729Z 32002KT 27/13 A3004 RMK A01 T02660129  RH  043%=      5-min Rain = 0
KVA1 120730Z 31002KT 27/13 A3004 RMK A01 T02660129  RH  043%=      5-min Rain = 0
KVA1 120731Z 29003KT 27/13 A3004 RMK A01 T02660126  RH  042%=      5-min Rain = 0
KVA1 120732Z 26002KT 27/13 A3004 RMK A01 T02670126  RH  042%=      5-min Rain = 0
KVA1 120733Z 31001KT 27/12 A3004 RMK A01 T02680124  RH  041%=      5-min Rain = 0
KVA1 120734Z 32003KT 27/13 A3004 RMK A01 T02700128  RH  041%=      5-min Rain = 0
KVA1 120735Z 32003KT 27/13 A3004 RMK A01 T02690128  RH  042%=      5-min Rain = 0
KVA1 120736Z 31002KT 27/13 A3004 RMK A01 T02680128  RH  042%=      5-min Rain = 0
KVA1 120737Z 33002KT 27/13 A3004 RMK A01 T02660126  RH  042%=      5-min Rain = 0
KVA1 120738Z 34003KT 27/13 A3004 RMK A01 T02670125  RH  041%=      5-min Rain = 0
KVA1 120739Z 33002KT 27/13 A3004 RMK A01 T02680127  RH  042%=      5-min Rain = 0
KVA1 120740Z 33002KT 27/13 A3004 RMK A01 T02670126  RH  042%=      5-min Rain = 0
KVA1 120741Z 35002KT 27/13 A3004 RMK A01 T02670125  RH  041%=      5-min Rain = 0
KVA1 120742Z 35002KT 27/13 A3004 RMK A01 T02670125  RH  041%=      5-min Rain = 0
KVA1 120743Z 33002KT 27/13 A3004 RMK A01 T02670125  RH  041%=      5-min Rain = 0
KVA1 120744Z 33002KT 27/12 A3004 RMK A01 T02670124  RH  041%=      5-min Rain = 0
KVA1 120745Z 31002KT 27/12 A3004 RMK A01 T02680120  RH  040%=      5-min Rain = 0
KVA1 120746Z 32003KT 27/13 A3004 RMK A01 T02710125  RH  041%=      5-min Rain = 0
KVA1 120747Z 32004KT 27/13 A3004 RMK A01 T02690127  RH  041%=      5-min Rain = 0
KVA1 120748Z 32002KT 27/13 A3004 RMK A01 T02670125  RH  041%=      5-min Rain = 0
KVA1 120749Z 32003KT 27/13 A3004 RMK A01 T02670125  RH  041%=      5-min Rain = 0
KVA1 120750Z 33003KT 27/12 A3004 RMK A01 T02670123  RH  041%=      5-min Rain = 0
KVA1 120751Z 31003KT 27/12 A3004 RMK A01 T02670124  RH  041%=      5-min Rain = 0
KVA1 120752Z 28004KT 27/12 A3004 RMK A01 T02670123  RH  041%=      5-min Rain = 0
KVA1 120753Z 33002KT 27/12 A3004 RMK A01 T02680122  RH  040%=      5-min Rain = 0
KVA1 120754Z 34002KT 27/12 A3004 RMK A01 T02680121  RH  040%=      5-min Rain = 0
KVA1 120755Z 29005KT 27/12 A3004 RMK A01 T02690120  RH  040%=      5-min Rain = 0
KVA1 120756Z 27003KT 27/12 A3004 RMK A01 T02700121  RH  040%=      5-min Rain = 0
KVA1 120757Z 30003KT 27/12 A3004 RMK A01 T02710121  RH  039%=      5-min Rain = 0
KVA1 120758Z 30003KT 27/12 A3004 RMK A01 T02710121  RH  039%=      5-min Rain = 0
KVA1 120759Z 30004KT 27/12 A3004 RMK A01 T02710122  RH  040%=      5-min Rain = 0
KVA1 120800Z 30004KT 27/12 A3004 RMK A01 T02690121  RH  040%=      5-min Rain = 0
KVA1 120801Z 25003KT 27/12 A3004 RMK A01 T02690120  RH  039%=      5-min Rain = 0
KVA1 120802Z 20001KT 27/12 A3004 RMK A01 T02690117  RH  039%=      5-min Rain = 0
KVA1 120803Z 28001KT 27/12 A3004 RMK A01 T02720117  RH  038%=      5-min Rain = 0
KVA1 120804Z 24003KT 27/12 A3004 RMK A01 T02720118  RH  038%=      5-min Rain = 0
KVA1 120805Z 27001KT 27/12 A3004 RMK A01 T02730117  RH  038%=      5-min Rain = 0
KVA1 120806Z 20001KT 27/12 A3004 RMK A01 T02730117  RH  038%=      5-min Rain = 0
KVA1 120807Z 23002KT 27/12 A3004 RMK A01 T02730119  RH  038%=      5-min Rain = 0
KVA1 120808Z 18003KT 27/12 A3004 RMK A01 T02730118  RH  038%=      5-min Rain = 0
KVA1 120809Z 21003KT 27/12 A3004 RMK A01 T02730118  RH  038%=      5-min Rain = 0
KVA1 120810Z 23002KT 27/12 A3004 RMK A01 T02730117  RH  038%=      5-min Rain = 0
KVA1 120811Z 22004KT 27/12 A3004 RMK A01 T02740118  RH  038%=      5-min Rain = 0
KVA1 120812Z 20005KT 27/12 A3004 RMK A01 T02740119  RH  038%=      5-min Rain = 0
KVA1 120813Z 21005KT 27/12 A3004 RMK A01 T02720119  RH  039%=      5-min Rain = 0
KVA1 120814Z 21006KT 27/12 A3004 RMK A01 T02710120  RH  039%=      5-min Rain = 0
KVA1 120815Z 20007KT 27/12 A3004 RMK A01 T02700119  RH  039%=      5-min Rain = 0
KVA1 120816Z 20007KT 27/12 A3004 RMK A01 T02700117  RH  038%=      5-min Rain = 0
KVA1 120817Z 20007KT 27/12 A3004 RMK A01 T02710118  RH  038%=      5-min Rain = 0
KVA1 120818Z 20007KT 27/12 A3004 RMK A01 T02720116  RH  038%=      5-min Rain = 0
KVA1 120819Z 20007KT 27/12 A3004 RMK A01 T02730116  RH  037%=      5-min Rain = 0
KVA1 120820Z 20007KT 27/12 A3004 RMK A01 T02740116  RH  037%=      5-min Rain = 0
KVA1 120821Z 19006KT 28/12 A3004 RMK A01 T02750115  RH  037%=      5-min Rain = 0
KVA1 120822Z 19009KT 28/12 A3004 RMK A01 T02750115  RH  037%=      5-min Rain = 0
KVA1 120823Z 19008KT 28/12 A3004 RMK A01 T02760115  RH  037%=      5-min Rain = 0
KVA1 120824Z 20007KT 28/12 A3004 RMK A01 T02760115  RH  037%=      5-min Rain = 0
KVA1 120825Z 19009KT 28/12 A3004 RMK A01 T02760115  RH  037%=      5-min Rain = 0
KVA1 120826Z 20007KT 28/12 A3004 RMK A01 T02770115  RH  037%=      5-min Rain = 0
KVA1 120827Z 19008KT 28/12 A3004 RMK A01 T02770115  RH  037%=      5-min Rain = 0
KVA1 120828Z 19008KT 28/12 A3004 RMK A01 T02770115  RH  036%=      5-min Rain = 0
KVA1 120829Z 19008KT 28/12 A3004 RMK A01 T02770115  RH  037%=      5-min Rain = 0
KVA1 120830Z 19008KT 28/11 A3004 RMK A01 T02770114  RH  036%=      5-min Rain = 0
KVA1 120831Z 20008KT 28/12 A3004 RMK A01 T02780115  RH  036%=      5-min Rain = 0
KVA1 120832Z 20007KT 28/12 A3004 RMK A01 T02780115  RH  036%=      5-min Rain = 0
KVA1 120833Z 21007KT 28/11 A3004 RMK A01 T02770114  RH  036%=      5-min Rain = 0
KVA1 120834Z 20006KT 28/12 A3004 RMK A01 T02770115  RH  036%=      5-min Rain = 0
KVA1 120835Z 20008KT 28/12 A3004 RMK A01 T02760115  RH  037%=      5-min Rain = 0
KVA1 120836Z 20007KT 28/11 A3004 RMK A01 T02760113  RH  036%=      5-min Rain = 0
KVA1 120837Z 20004KT 28/12 A3004 RMK A01 T02770115  RH  036%=      5-min Rain = 0
KVA1 120838Z 20005KT 28/12 A3004 RMK A01 T02760115  RH  037%=      5-min Rain = 0
KVA1 120839Z 20005KT 28/12 A3004 RMK A01 T02760115  RH  037%=      5-min Rain = 0
KVA1 120840Z 19005KT 28/12 A3004 RMK A01 T02750115  RH  037%=      5-min Rain = 0
KVA1 120841Z 19006KT 28/12 A3004 RMK A01 T02750116  RH  037%=      5-min Rain = 0
KVA1 120842Z 20005KT 28/12 A3004 RMK A01 T02750116  RH  037%=      5-min Rain = 0
KVA1 120843Z 19006KT 27/12 A3004 RMK A01 T02740116  RH  037%=      5-min Rain = 0
KVA1 120844Z 21006KT 27/12 A3004 RMK A01 T02740115  RH  037%=      5-min Rain = 0
KVA1 120845Z 20006KT 27/12 A3004 RMK A01 T02740115  RH  037%=      5-min Rain = 0
KVA1 120846Z 20006KT 27/12 A3004 RMK A01 T02740115  RH  037%=      5-min Rain = 0
KVA1 120847Z 21006KT 27/12 A3004 RMK A01 T02740116  RH  037%=      5-min Rain = 0
KVA1 120848Z 21006KT 27/12 A3004 RMK A01 T02730115  RH  037%=      5-min Rain = 0
KVA1 120849Z 21007KT 27/12 A3004 RMK A01 T02730115  RH  037%=      5-min Rain = 0
KVA1 120850Z 21007KT 27/12 A3004 RMK A01 T02720115  RH  038%=      5-min Rain = 0
KVA1 120851Z 21008KT 27/12 A3004 RMK A01 T02720115  RH  037%=      5-min Rain = 0
KVA1 120852Z 21008KT 27/12 A3004 RMK A01 T02720115  RH  037%=      5-min Rain = 0
KVA1 120853Z 21008KT 27/12 A3004 RMK A01 T02720115  RH  038%=      5-min Rain = 0
KVA1 120854Z 21009KT 27/12 A3004 RMK A01 T02720115  RH  038%=      5-min Rain = 0
KVA1 120855Z 21007KT 27/12 A3004 RMK A01 T02720115  RH  038%=      5-min Rain = 0
KVA1 120856Z 21007KT 27/12 A3004 RMK A01 T02720115  RH  038%=      5-min Rain = 0
KVA1 120857Z 21007KT 27/12 A3004 RMK A01 T02720115  RH  038%=      5-min Rain = 0
KVA1 120858Z 22007KT 27/12 A3004 RMK A01 T02720115  RH  038%=      5-min Rain = 0
KVA1 120859Z 22006KT 27/12 A3004 RMK A01 T02710115  RH  038%=      5-min Rain = 0
KVA1 120900Z 22007KT 27/11 A3004 RMK A01 T02710114  RH  038%=      5-min Rain = 0
KVA1 120901Z 22007KT 27/12 A3004 RMK A01 T02710115  RH  038%=      5-min Rain = 0
KVA1 120902Z 22006KT 27/12 A3004 RMK A01 T02700116  RH  038%=      5-min Rain = 0
KVA1 120903Z 22007KT 27/12 A3004 RMK A01 T02690115  RH  038%=      5-min Rain = 0
KVA1 120904Z 21007KT 27/11 A3004 RMK A01 T02690114  RH  038%=      5-min Rain = 0
KVA1 120905Z 22007KT 27/12 A3005 RMK A01 T02710115  RH  038%=      5-min Rain = 0
KVA1 120906Z 22007KT 27/12 A3005 RMK A01 T02710115  RH  038%=      5-min Rain = 0
KVA1 120907Z 21007KT 27/12 A3005 RMK A01 T02710115  RH  038%=      5-min Rain = 0
KVA1 120908Z 21007KT 27/12 A3005 RMK A01 T02710116  RH  038%=      5-min Rain = 0
KVA1 120909Z 22007KT 27/11 A3004 RMK A01 T02700114  RH  038%=      5-min Rain = 0
KVA1 120910Z 22006KT 27/12 A3005 RMK A01 T02710115  RH  038%=      5-min Rain = 0
KVA1 120911Z 22006KT 27/12 A3005 RMK A01 T02700116  RH  038%=      5-min Rain = 0
KVA1 120912Z 22006KT 27/12 A3005 RMK A01 T02690116  RH  038%=      5-min Rain = 0
KVA1 120913Z 22006KT 27/12 A3005 RMK A01 T02680116  RH  039%=      5-min Rain = 0
KVA1 120914Z 21007KT 27/12 A3004 RMK A01 T02670116  RH  039%=      5-min Rain = 0
KVA1 120915Z 21007KT 27/12 A3005 RMK A01 T02670116  RH  039%=      5-min Rain = 0
KVA1 120916Z 21007KT 27/12 A3005 RMK A01 T02670115  RH  039%=      5-min Rain = 0
KVA1 120917Z 21007KT 27/12 A3005 RMK A01 T02680116  RH  039%=      5-min Rain = 0
KVA1 120918Z 22007KT 27/12 A3005 RMK A01 T02680116  RH  039%=      5-min Rain = 0
KVA1 120919Z 22007KT 27/12 A3005 RMK A01 T02680116  RH  039%=      5-min Rain = 0
KVA1 120920Z 22007KT 27/12 A3005 RMK A01 T02670115  RH  039%=      5-min Rain = 0
KVA1 120921Z 22007KT 27/12 A3005 RMK A01 T02680115  RH  039%=      5-min Rain = 0
KVA1 120922Z 22007KT 27/12 A3005 RMK A01 T02690115  RH  038%=      5-min Rain = 0
KVA1 120923Z 22008KT 27/12 A3005 RMK A01 T02690115  RH  038%=      5-min Rain = 0
KVA1 120924Z 22008KT 27/12 A3005 RMK A01 T02690115  RH  038%=      5-min Rain = 0
KVA1 120925Z 22009KT 27/12 A3005 RMK A01 T02690115  RH  038%=      5-min Rain = 0
KVA1 120926Z 22007KT 27/12 A3005 RMK A01 T02690115  RH  038%=      5-min Rain = 0
KVA1 120927Z 21009KT 27/12 A3005 RMK A01 T02700115  RH  038%=      5-min Rain = 0
KVA1 120928Z 21009KT 27/11 A3005 RMK A01 T02710114  RH  038%=      5-min Rain = 0
KVA1 120929Z 21009KT 27/12 A3005 RMK A01 T02720115  RH  038%=      5-min Rain = 0
KVA1 120930Z 21008KT 27/12 A3005 RMK A01 T02710115  RH  038%=      5-min Rain = 0
KVA1 120931Z 20008KT 27/12 A3005 RMK A01 T02710116  RH  038%=      5-min Rain = 0
KVA1 120932Z 21008KT 27/12 A3005 RMK A01 T02700116  RH  038%=      5-min Rain = 0
KVA1 120933Z 20008KT 27/12 A3005 RMK A01 T02680115  RH  039%=      5-min Rain = 0
KVA1 120934Z 20007KT 27/12 A3005 RMK A01 T02690115  RH  038%=      5-min Rain = 0
KVA1 120935Z 20006KT 27/12 A3005 RMK A01 T02680115  RH  038%=      5-min Rain = 0
KVA1 120936Z 20007KT 27/12 A3005 RMK A01 T02680116  RH  039%=      5-min Rain = 0
KVA1 120937Z 19006KT 27/12 A3005 RMK A01 T02680116  RH  039%=      5-min Rain = 0
KVA1 120938Z 20006KT 27/12 A3005 RMK A01 T02670116  RH  039%=      5-min Rain = 0
KVA1 120939Z 20006KT 27/12 A3005 RMK A01 T02660116  RH  039%=      5-min Rain = 0
KVA1 120940Z 20007KT 27/12 A3005 RMK A01 T02660117  RH  039%=      5-min Rain = 0
KVA1 120941Z 20006KT 27/12 A3005 RMK A01 T02650117  RH  040%=      5-min Rain = 0
KVA1 120942Z 20007KT 27/12 A3005 RMK A01 T02650117  RH  040%=      5-min Rain = 0
KVA1 120943Z 19008KT 27/12 A3005 RMK A01 T02650116  RH  039%=      5-min Rain = 0
KVA1 120944Z 20006KT 27/12 A3005 RMK A01 T02660116  RH  039%=      5-min Rain = 0
KVA1 120945Z 19009KT 27/12 A3005 RMK A01 T02670115  RH  039%=      5-min Rain = 0
KVA1 120946Z 20006KT 27/12 A3005 RMK A01 T02690115  RH  038%=      5-min Rain = 0
KVA1 120947Z 21005KT 27/12 A3005 RMK A01 T02690116  RH  039%=      5-min Rain = 0
KVA1 120948Z 21005KT 27/12 A3005 RMK A01 T02660117  RH  039%=      5-min Rain = 0
KVA1 120949Z 20005KT 26/12 A3005 RMK A01 T02640117  RH  040%=      5-min Rain = 0
KVA1 120950Z 22005KT 26/12 A3005 RMK A01 T02620117  RH  040%=      5-min Rain = 0
KVA1 120951Z 21005KT 26/12 A3005 RMK A01 T02610117  RH  041%=      5-min Rain = 0
KVA1 120952Z 22005KT 26/12 A3005 RMK A01 T02600117  RH  041%=      5-min Rain = 0
KVA1 120953Z 23006KT 26/12 A3005 RMK A01 T02590117  RH  041%=      5-min Rain = 0
KVA1 120954Z 24006KT 26/12 A3005 RMK A01 T02580118  RH  042%=      5-min Rain = 0
KVA1 120955Z 24006KT 26/12 A3005 RMK A01 T02560118  RH  042%=      5-min Rain = 0
KVA1 120956Z 25006KT 25/12 A3005 RMK A01 T02540118  RH  043%=      5-min Rain = 0
KVA1 120957Z 25007KT 25/12 A3005 RMK A01 T02520118  RH  043%=      5-min Rain = 0
KVA1 120958Z 25006KT 25/12 A3005 RMK A01 T02510118  RH  043%=      5-min Rain = 0
KVA1 120959Z 25006KT 25/12 A3005 RMK A01 T02490118  RH  044%=      5-min Rain = 0
KVA1 121000Z 25007KT 25/12 A3005 RMK A01 T02480119  RH  044%=      5-min Rain = 0
KVA1 121001Z 25007KT 25/12 A3005 RMK A01 T02470119  RH  045%=      5-min Rain = 0
KVA1 121002Z 24007KT 25/12 A3006 RMK A01 T02460118  RH  045%=      5-min Rain = 0
KVA1 121003Z 24006KT 25/12 A3005 RMK A01 T02460118  RH  045%=      5-min Rain = 0
KVA1 121004Z 24007KT 25/12 A3005 RMK A01 T02460119  RH  045%=      5-min Rain = 0
KVA1 121005Z 24006KT 25/12 A3005 RMK A01 T02450118  RH  045%=      5-min Rain = 0
KVA1 121006Z 24006KT 24/12 A3005 RMK A01 T02440119  RH  045%=      5-min Rain = 0
KVA1 121007Z 25006KT 24/12 A3005 RMK A01 T02440119  RH  045%=      5-min Rain = 0
KVA1 121008Z 24006KT 24/12 A3005 RMK A01 T02430118  RH  045%=      5-min Rain = 0
KVA1 121009Z 25006KT 24/12 A3005 RMK A01 T02430119  RH  046%=      5-min Rain = 0
KVA1 121010Z 24006KT 24/12 A3005 RMK A01 T02420119  RH  046%=      5-min Rain = 0
KVA1 121011Z 25006KT 24/12 A3005 RMK A01 T02410119  RH  046%=      5-min Rain = 0
KVA1 121012Z 25006KT 24/12 A3005 RMK A01 T02400119  RH  047%=      5-min Rain = 0
KVA1 121013Z 24007KT 24/12 A3005 RMK A01 T02390120  RH  047%=      5-min Rain = 0
KVA1 121014Z 24007KT 24/12 A3005 RMK A01 T02380120  RH  047%=      5-min Rain = 0
KVA1 121015Z 23007KT 24/12 A3005 RMK A01 T02380119  RH  047%=      5-min Rain = 0
KVA1 121016Z 23007KT 24/12 A3005 RMK A01 T02390119  RH  047%=      5-min Rain = 0
KVA1 121017Z 23007KT 24/12 A3005 RMK A01 T02400119  RH  047%=      5-min Rain = 0
KVA1 121018Z 23007KT 24/12 A3005 RMK A01 T02410118  RH  046%=      5-min Rain = 0
KVA1 121019Z 23007KT 24/12 A3005 RMK A01 T02420118  RH  046%=      5-min Rain = 0
KVA1 121020Z 24007KT 24/12 A3005 RMK A01 T02420118  RH  046%=      5-min Rain = 0
KVA1 121021Z 24007KT 24/12 A3005 RMK A01 T02420118  RH  046%=      5-min Rain = 0
KVA1 121022Z 24008KT 24/12 A3005 RMK A01 T02420119  RH  046%=      5-min Rain = 0
KVA1 121023Z 24008KT 24/12 A3005 RMK A01 T02420119  RH  046%=      5-min Rain = 0
KVA1 121024Z 24008KT 24/12 A3005 RMK A01 T02420119  RH  046%=      5-min Rain = 0
KVA1 121025Z 24007KT 24/12 A3005 RMK A01 T02420119  RH  046%=      5-min Rain = 0
KVA1 121026Z 24007KT 24/12 A3005 RMK A01 T02420119  RH  046%=      5-min Rain = 0
KVA1 121027Z 24007KT 24/12 A3005 RMK A01 T02420118  RH  046%=      5-min Rain = 0
KVA1 121028Z 24007KT 24/12 A3005 RMK A01 T02420118  RH  046%=      5-min Rain = 0
KVA1 121029Z 24008KT 24/12 A3005 RMK A01 T02420117  RH  046%=      5-min Rain = 0
KVA1 121030Z 24008KT 24/12 A3005 RMK A01 T02420117  RH  045%=      5-min Rain = 0
KVA1 121031Z 24008KT 24/12 A3005 RMK A01 T02420117  RH  045%=      5-min Rain = 0
KVA1 121032Z 24009KT 24/12 A3005 RMK A01 T02420117  RH  045%=      5-min Rain = 0
KVA1 121033Z 25009KT 24/12 A3005 RMK A01 T02410116  RH  045%=      5-min Rain = 0
KVA1 121034Z 24009KT 24/12 A3005 RMK A01 T02410116  RH  045%=      5-min Rain = 0
KVA1 121035Z 24009KT 24/12 A3005 RMK A01 T02410115  RH  045%=      5-min Rain = 0
KVA1 121036Z 24009KT 24/12 A3005 RMK A01 T02410115  RH  045%=      5-min Rain = 0
KVA1 121037Z 24008KT 24/12 A3005 RMK A01 T02400115  RH  045%=      5-min Rain = 0
KVA1 121038Z 24008KT 24/12 A3005 RMK A01 T02410115  RH  045%=      5-min Rain = 0
KVA1 121039Z 23007KT 24/12 A3005 RMK A01 T02400115  RH  045%=      5-min Rain = 0
KVA1 121040Z 24008KT 24/12 A3005 RMK A01 T02410115  RH  045%=      5-min Rain = 0
KVA1 121041Z 23007KT 24/11 A3005 RMK A01 T02400114  RH  045%=      5-min Rain = 0
KVA1 121042Z 24008KT 24/11 A3005 RMK A01 T02400114  RH  045%=      5-min Rain = 0
KVA1 121043Z 23008KT 24/11 A3005 RMK A01 T02400114  RH  045%=      5-min Rain = 0
KVA1 121044Z 24007KT 24/12 A3005 RMK A01 T02410115  RH  045%=      5-min Rain = 0
KVA1 121045Z 23008KT 24/12 A3005 RMK A01 T02400115  RH  045%=      5-min Rain = 0
KVA1 121046Z 23007KT 24/12 A3005 RMK A01 T02400115  RH  045%=      5-min Rain = 0
KVA1 121047Z 23008KT 24/12 A3005 RMK A01 T02400115  RH  045%=      5-min Rain = 0
KVA1 121048Z 23008KT 24/11 A3005 RMK A01 T02390114  RH  045%=      5-min Rain = 0
KVA1 121049Z 23007KT 24/11 A3005 RMK A01 T02390114  RH  045%=      5-min Rain = 0
KVA1 121050Z 23007KT 24/12 A3005 RMK A01 T02390115  RH  045%=      5-min Rain = 0
KVA1 121051Z 23007KT 24/12 A3005 RMK A01 T02390115  RH  046%=      5-min Rain = 0
KVA1 121052Z 23007KT 24/12 A3005 RMK A01 T02380115  RH  046%=      5-min Rain = 0
KVA1 121053Z 23006KT 24/12 A3005 RMK A01 T02380115  RH  046%=      5-min Rain = 0
KVA1 121054Z 24007KT 24/12 A3005 RMK A01 T02380115  RH  046%=      5-min Rain = 0
KVA1 121055Z 24007KT 24/12 A3005 RMK A01 T02370115  RH  046%=      5-min Rain = 0
KVA1 121056Z 24006KT 24/12 A3005 RMK A01 T02360115  RH  046%=      5-min Rain = 0
KVA1 121057Z 24006KT 24/12 A3005 RMK A01 T02360115  RH  047%=      5-min Rain = 0
KVA1 121058Z 24007KT 24/12 A3005 RMK A01 T02350115  RH  047%=      5-min Rain = 0
KVA1 121059Z 23007KT 24/12 A3005 RMK A01 T02350115  RH  047%=      5-min Rain = 0
KVA1 121100Z 23007KT 24/12 A3005 RMK A01 T02350115  RH  047%=      5-min Rain = 0
KVA1 121101Z 23007KT 24/12 A3005 RMK A01 T02350115  RH  047%=      5-min Rain = 0
KVA1 121102Z 23008KT 24/12 A3006 RMK A01 T02350115  RH  047%=      5-min Rain = 0
KVA1 121103Z 23007KT 24/12 A3006 RMK A01 T02350115  RH  047%=      5-min Rain = 0
KVA1 121104Z 23008KT 24/12 A3006 RMK A01 T02350116  RH  047%=      5-min Rain = 0
KVA1 121105Z 23008KT 24/12 A3006 RMK A01 T02350116  RH  047%=      5-min Rain = 0
KVA1 121106Z 23008KT 23/12 A3006 RMK A01 T02340116  RH  047%=      5-min Rain = 0
KVA1 121107Z 23008KT 23/12 A3006 RMK A01 T02340115  RH  047%=      5-min Rain = 0
KVA1 121108Z 22008KT 23/12 A3006 RMK A01 T02340115  RH  047%=      5-min Rain = 0
KVA1 121109Z 22009KT 24/12 A3006 RMK A01 T02350115  RH  047%=      5-min Rain = 0
KVA1 121110Z 23008KT 24/12 A3006 RMK A01 T02350115  RH  047%=      5-min Rain = 0
KVA1 121111Z 23007KT 24/12 A3006 RMK A01 T02360115  RH  047%=      5-min Rain = 0
KVA1 121112Z 23007KT 24/12 A3006 RMK A01 T02360116  RH  047%=      5-min Rain = 0
KVA1 121113Z 24008KT 24/12 A3006 RMK A01 T02350116  RH  047%=      5-min Rain = 0
KVA1 121114Z 23008KT 23/12 A3006 RMK A01 T02340116  RH  047%=      5-min Rain = 0
KVA1 121115Z 23008KT 23/12 A3006 RMK A01 T02340116  RH  047%=      5-min Rain = 0
KVA1 121116Z 23008KT 23/12 A3006 RMK A01 T02340116  RH  047%=      5-min Rain = 0
KVA1 121117Z 23008KT 23/12 A3006 RMK A01 T02340116  RH  047%=      5-min Rain = 0
KVA1 121118Z 23008KT 23/12 A3006 RMK A01 T02340116  RH  047%=      5-min Rain = 0
KVA1 121119Z 23007KT 23/12 A3006 RMK A01 T02340116  RH  048%=      5-min Rain = 0
KVA1 121120Z 23006KT 23/12 A3006 RMK A01 T02330116  RH  048%=      5-min Rain = 0
KVA1 121121Z 24007KT 23/12 A3006 RMK A01 T02320117  RH  048%=      5-min Rain = 0
KVA1 121122Z 23006KT 23/12 A3006 RMK A01 T02310117  RH  049%=      5-min Rain = 0
KVA1 121123Z 24006KT 23/12 A3006 RMK A01 T02300117  RH  049%=      5-min Rain = 0
KVA1 121124Z 23007KT 23/12 A3006 RMK A01 T02290117  RH  049%=      5-min Rain = 0
KVA1 121125Z 22007KT 23/12 A3006 RMK A01 T02290117  RH  049%=      5-min Rain = 0
KVA1 121126Z 22007KT 23/12 A3006 RMK A01 T02290117  RH  049%=      5-min Rain = 0
KVA1 121127Z 22007KT 23/12 A3006 RMK A01 T02300116  RH  049%=      5-min Rain = 0
KVA1 121128Z 22007KT 23/12 A3006 RMK A01 T02310117  RH  049%=      5-min Rain = 0
KVA1 121129Z 23006KT 23/12 A3006 RMK A01 T02320117  RH  049%=      5-min Rain = 0
KVA1 121130Z 23006KT 23/12 A3006 RMK A01 T02310117  RH  049%=      5-min Rain = 0
KVA1 121131Z 22007KT 23/12 A3006 RMK A01 T02300118  RH  049%=      5-min Rain = 0
KVA1 121132Z 23006KT 23/12 A3006 RMK A01 T02290118  RH  049%=      5-min Rain = 0
KVA1 121133Z 23006KT 23/12 A3006 RMK A01 T02280118  RH  050%=      5-min Rain = 0
KVA1 121134Z 23007KT 23/12 A3006 RMK A01 T02270118  RH  050%=      5-min Rain = 0
KVA1 121135Z 22007KT 23/12 A3006 RMK A01 T02270118  RH  050%=      5-min Rain = 0
KVA1 121136Z 22007KT 23/12 A3006 RMK A01 T02270118  RH  050%=      5-min Rain = 0
KVA1 121137Z 22008KT 23/12 A3006 RMK A01 T02280118  RH  050%=      5-min Rain = 0
KVA1 121138Z 22008KT 23/12 A3006 RMK A01 T02290117  RH  049%=      5-min Rain = 0
KVA1 121139Z 22008KT 23/12 A3006 RMK A01 T02300117  RH  049%=      5-min Rain = 0
KVA1 121140Z 22008KT 23/12 A3006 RMK A01 T02310117  RH  049%=      5-min Rain = 0
KVA1 121141Z 21008KT 23/12 A3006 RMK A01 T02310117  RH  049%=      5-min Rain = 0
KVA1 121142Z 21009KT 23/12 A3006 RMK A01 T02310117  RH  048%=      5-min Rain = 0
KVA1 121143Z 21008KT 23/12 A3006 RMK A01 T02310117  RH  048%=      5-min Rain = 0
KVA1 121144Z 21008KT 23/12 A3006 RMK A01 T02310117  RH  049%=      5-min Rain = 0
KVA1 121145Z 21009KT 23/12 A3006 RMK A01 T02310118  RH  049%=      5-min Rain = 0
KVA1 121146Z 21009KT 23/12 A3006 RMK A01 T02300118  RH  049%=      5-min Rain = 0
KVA1 121147Z 21009KT 23/12 A3006 RMK A01 T02300118  RH  049%=      5-min Rain = 0
KVA1 121148Z 21008KT 23/12 A3006 RMK A01 T02300118  RH  049%=      5-min Rain = 0
KVA1 121149Z 21007KT 23/12 A3006 RMK A01 T02290117  RH  049%=      5-min Rain = 0
KVA1 121150Z 21009KT 23/12 A3006 RMK A01 T02290118  RH  049%=      5-min Rain = 0
KVA1 121151Z 21008KT 23/12 A3006 RMK A01 T02290118  RH  049%=      5-min Rain = 0
KVA1 121152Z 21008KT 23/12 A3006 RMK A01 T02290118  RH  049%=      5-min Rain = 0
KVA1 121153Z 22007KT 23/12 A3006 RMK A01 T02280117  RH  050%=      5-min Rain = 0
KVA1 121154Z 22007KT 23/12 A3006 RMK A01 T02280117  RH  050%=      5-min Rain = 0
KVA1 121155Z 22006KT 23/12 A3006 RMK A01 T02270117  RH  050%=      5-min Rain = 0
KVA1 121156Z 21007KT 23/12 A3006 RMK A01 T02270118  RH  050%=      5-min Rain = 0
KVA1 121157Z 22006KT 23/12 A3007 RMK A01 T02270117  RH  050%=      5-min Rain = 0
KVA1 121158Z 22007KT 23/12 A3007 RMK A01 T02260117  RH  050%=      5-min Rain = 0
KVA1 121159Z 22006KT 23/12 A3007 RMK A01 T02260117  RH  050%=      5-min Rain = 0
KVA1 121200Z 22006KT 23/12 A3007 RMK A01 T02260118  RH  050%=      5-min Rain = 0
KVA1 121201Z 22006KT 23/12 A3007 RMK A01 T02260117  RH  050%=      5-min Rain = 0
KVA1 121202Z 22007KT 23/12 A3007 RMK A01 T02260118  RH  050%=      5-min Rain = 0
KVA1 121203Z 22007KT 23/12 A3007 RMK A01 T02250117  RH  050%=      5-min Rain = 0
KVA1 121204Z 22006KT 23/12 A3007 RMK A01 T02260118  RH  050%=      5-min Rain = 0
KVA1 121205Z 22006KT 23/12 A3007 RMK A01 T02250118  RH  050%=      5-min Rain = 0
KVA1 121206Z 22006KT 23/12 A3007 RMK A01 T02250117  RH  051%=      5-min Rain = 0
KVA1 121207Z 22006KT 23/12 A3007 RMK A01 T02250117  RH  051%=      5-min Rain = 0
KVA1 121208Z 22006KT 22/12 A3007 RMK A01 T02240118  RH  051%=      5-min Rain = 0
KVA1 121209Z 23006KT 22/12 A3007 RMK A01 T02240118  RH  051%=      5-min Rain = 0
KVA1 121210Z 23006KT 22/12 A3007 RMK A01 T02230118  RH  051%=      5-min Rain = 0
KVA1 121211Z 24006KT 22/12 A3007 RMK A01 T02210118  RH  052%=      5-min Rain = 0
KVA1 121212Z 24006KT 22/12 A3007 RMK A01 T02210118  RH  052%=      5-min Rain = 0
KVA1 121213Z 24006KT 22/12 A3007 RMK A01 T02200118  RH  052%=      5-min Rain = 0
KVA1 121214Z 24006KT 22/12 A3007 RMK A01 T02190118  RH  053%=      5-min Rain = 0
KVA1 121215Z 24006KT 22/12 A3007 RMK A01 T02190119  RH  053%=      5-min Rain = 0
KVA1 121216Z 24007KT 22/12 A3007 RMK A01 T02180119  RH  053%=      5-min Rain = 0
KVA1 121217Z 23006KT 22/12 A3007 RMK A01 T02170119  RH  054%=      5-min Rain = 0
KVA1 121218Z 23007KT 22/12 A3007 RMK A01 T02170119  RH  054%=      5-min Rain = 0
KVA1 121219Z 24006KT 22/12 A3007 RMK A01 T02170120  RH  054%=      5-min Rain = 0
KVA1 121220Z 23006KT 22/12 A3007 RMK A01 T02160119  RH  054%=      5-min Rain = 0
KVA1 121221Z 24007KT 22/12 A3007 RMK A01 T02160119  RH  054%=      5-min Rain = 0
KVA1 121222Z 23006KT 22/12 A3007 RMK A01 T02160119  RH  054%=      5-min Rain = 0
KVA1 121223Z 24006KT 22/12 A3007 RMK A01 T02170119  RH  054%=      5-min Rain = 0
KVA1 121224Z 24006KT 22/12 A3007 RMK A01 T02170119  RH  054%=      5-min Rain = 0
KVA1 121225Z 24006KT 22/12 A3007 RMK A01 T02170119  RH  054%=      5-min Rain = 0
KVA1 121226Z 24006KT 22/12 A3007 RMK A01 T02170119  RH  053%=      5-min Rain = 0
KVA1 121227Z 24006KT 22/12 A3007 RMK A01 T02170119  RH  053%=      5-min Rain = 0
KVA1 121228Z 24005KT 22/12 A3007 RMK A01 T02180119  RH  053%=      5-min Rain = 0
KVA1 121229Z 25005KT 22/12 A3007 RMK A01 T02180119  RH  053%=      5-min Rain = 0
KVA1 121230Z 24005KT 22/12 A3007 RMK A01 T02180119  RH  053%=      5-min Rain = 0
KVA1 121231Z 25005KT 22/12 A3007 RMK A01 T02190119  RH  053%=      5-min Rain = 0
KVA1 121232Z 25006KT 22/12 A3007 RMK A01 T02190118  RH  053%=      5-min Rain = 0
KVA1 121233Z 25006KT 22/12 A3007 RMK A01 T02200118  RH  052%=      5-min Rain = 0
KVA1 121234Z 24005KT 22/12 A3007 RMK A01 T02200118  RH  052%=      5-min Rain = 0
KVA1 121235Z 23005KT 22/12 A3007 RMK A01 T02210118  RH  052%=      5-min Rain = 0
KVA1 121236Z 24004KT 22/12 A3007 RMK A01 T02210118  RH  052%=      5-min Rain = 0
KVA1 121237Z 24004KT 22/12 A3007 RMK A01 T02210118  RH  052%=      5-min Rain = 0
KVA1 121238Z 24004KT 22/12 A3007 RMK A01 T02220119  RH  052%=      5-min Rain = 0
KVA1 121239Z 24004KT 22/12 A3007 RMK A01 T02220118  RH  052%=      5-min Rain = 0
KVA1 121240Z 24005KT 22/12 A3007 RMK A01 T02220119  RH  052%=      5-min Rain = 0
KVA1 121241Z 24004KT 22/12 A3007 RMK A01 T02220119  RH  052%=      5-min Rain = 0
KVA1 121242Z 25005KT 22/12 A3007 RMK A01 T02220119  RH  052%=      5-min Rain = 0
KVA1 121243Z 25005KT 22/12 A3007 RMK A01 T02220119  RH  052%=      5-min Rain = 0
KVA1 121244Z 25006KT 22/12 A3007 RMK A01 T02220119  RH  052%=      5-min Rain = 0
KVA1 121245Z 25005KT 22/12 A3007 RMK A01 T02220119  RH  052%=      5-min Rain = 0
KVA1 121246Z 25005KT 22/12 A3007 RMK A01 T02220120  RH  052%=      5-min Rain = 0
KVA1 121247Z 25005KT 22/12 A3007 RMK A01 T02220120  RH  052%=      5-min Rain = 0
KVA1 121248Z 25005KT 22/12 A3007 RMK A01 T02220120  RH  052%=      5-min Rain = 0
KVA1 121249Z 25005KT 22/12 A3007 RMK A01 T02220120  RH  052%=      5-min Rain = 0
KVA1 121250Z 25005KT 22/12 A3007 RMK A01 T02230120  RH  052%=      5-min Rain = 0
KVA1 121251Z 25006KT 22/12 A3007 RMK A01 T02230121  RH  052%=      5-min Rain = 0
KVA1 121252Z 25006KT 22/12 A3008 RMK A01 T02240121  RH  052%=      5-min Rain = 0
KVA1 121253Z 24005KT 22/12 A3008 RMK A01 T02240121  RH  052%=      5-min Rain = 0
KVA1 121254Z 24005KT 23/12 A3007 RMK A01 T02250121  RH  052%=      5-min Rain = 0
KVA1 121255Z 24005KT 23/12 A3007 RMK A01 T02260121  RH  051%=      5-min Rain = 0
KVA1 121256Z 23005KT 23/12 A3007 RMK A01 T02260120  RH  051%=      5-min Rain = 0
KVA1 121257Z 23004KT 23/12 A3007 RMK A01 T02280119  RH  050%=      5-min Rain = 0
KVA1 121258Z 23005KT 23/12 A3008 RMK A01 T02290120  RH  050%=      5-min Rain = 0
KVA1 121259Z 23004KT 23/12 A3007 RMK A01 T02300119  RH  050%=      5-min Rain = 0
KVA1 121300Z 23005KT 23/12 A3007 RMK A01 T02310118  RH  049%=      5-min Rain = 0
KVA1 121301Z 23006KT 23/12 A3007 RMK A01 T02320117  RH  048%=      5-min Rain = 0
KVA1 121302Z 23006KT 23/12 A3008 RMK A01 T02330117  RH  048%=      5-min Rain = 0
KVA1 121303Z 24006KT 23/12 A3008 RMK A01 T02340118  RH  048%=      5-min Rain = 0
KVA1 121304Z 24006KT 23/12 A3008 RMK A01 T02340118  RH  048%=      5-min Rain = 0
KVA1 121305Z 23005KT 23/12 A3008 RMK A01 T02340118  RH  048%=      5-min Rain = 0
KVA1 121306Z 23006KT 24/12 A3008 RMK A01 T02350118  RH  048%=      5-min Rain = 0
KVA1 121307Z 23005KT 24/12 A3008 RMK A01 T02360118  RH  048%=      5-min Rain = 0
KVA1 121308Z 22006KT 24/12 A3008 RMK A01 T02360118  RH  048%=      5-min Rain = 0
KVA1 121309Z 23006KT 24/12 A3008 RMK A01 T02360118  RH  047%=      5-min Rain = 0
KVA1 121310Z 23005KT 24/12 A3008 RMK A01 T02370117  RH  047%=      5-min Rain = 0
KVA1 121311Z 22005KT 24/12 A3008 RMK A01 T02370118  RH  047%=      5-min Rain = 0
KVA1 121312Z 22005KT 24/12 A3008 RMK A01 T02370117  RH  047%=      5-min Rain = 0
KVA1 121313Z 22004KT 24/12 A3008 RMK A01 T02380117  RH  047%=      5-min Rain = 0
KVA1 121314Z 22004KT 24/12 A3008 RMK A01 T02380118  RH  047%=      5-min Rain = 0
KVA1 121315Z 22004KT 24/12 A3008 RMK A01 T02380118  RH  047%=      5-min Rain = 0
KVA1 121316Z 21003KT 24/12 A3008 RMK A01 T02380118  RH  047%=      5-min Rain = 0
KVA1 121317Z 21004KT 24/12 A3008 RMK A01 T02390119  RH  047%=      5-min Rain = 0
KVA1 121318Z 21004KT 24/12 A3008 RMK A01 T02390119  RH  047%=      5-min Rain = 0
KVA1 121319Z 22005KT 24/12 A3008 RMK A01 T02400119  RH  047%=      5-min Rain = 0
KVA1 121320Z 22004KT 24/12 A3008 RMK A01 T02400118  RH  046%=      5-min Rain = 0
KVA1 121321Z 23004KT 24/12 A3008 RMK A01 T02410119  RH  047%=      5-min Rain = 0
KVA1 121322Z 23005KT 24/12 A3008 RMK A01 T02410119  RH  046%=      5-min Rain = 0
KVA1 121323Z 22005KT 24/12 A3008 RMK A01 T02420118  RH  046%=      5-min Rain = 0
KVA1 121324Z 22004KT 24/12 A3008 RMK A01 T02420119  RH  046%=      5-min Rain = 0
KVA1 121325Z 22005KT 24/12 A3008 RMK A01 T02430119  RH  046%=      5-min Rain = 0
KVA1 121326Z 21004KT 24/12 A3008 RMK A01 T02430119  RH  046%=      5-min Rain = 0
KVA1 121327Z 23004KT 24/12 A3008 RMK A01 T02440119  RH  046%=      5-min Rain = 0
KVA1 121328Z 22005KT 25/12 A3008 RMK A01 T02450119  RH  045%=      5-min Rain = 0
KVA1 121329Z 23005KT 25/12 A3008 RMK A01 T02450119  RH  045%=      5-min Rain = 0
KVA1 121330Z 23006KT 25/12 A3009 RMK A01 T02450119  RH  045%=      5-min Rain = 0
KVA1 121331Z 23005KT 25/12 A3009 RMK A01 T02460119  RH  045%=      5-min Rain = 0
KVA1 121332Z 23005KT 25/12 A3008 RMK A01 T02460119  RH  045%=      5-min Rain = 0
KVA1 121333Z 24005KT 25/12 A3008 RMK A01 T02470119  RH  045%=      5-min Rain = 0
KVA1 121334Z 22005KT 25/12 A3009 RMK A01 T02470119  RH  045%=      5-min Rain = 0
KVA1 121335Z 23006KT 25/12 A3009 RMK A01 T02480119  RH  045%=      5-min Rain = 0
KVA1 121336Z 24005KT 25/12 A3009 RMK A01 T02480119  RH  045%=      5-min Rain = 0
KVA1 121337Z 23005KT 25/12 A3009 RMK A01 T02480119  RH  044%=      5-min Rain = 0
KVA1 121338Z 22006KT 25/12 A3009 RMK A01 T02480118  RH  044%=      5-min Rain = 0
KVA1 121339Z 22006KT 25/12 A3009 RMK A01 T02490118  RH  044%=      5-min Rain = 0
KVA1 121340Z 22006KT 25/12 A3009 RMK A01 T02490119  RH  044%=      5-min Rain = 0
KVA1 121341Z 22005KT 25/12 A3009 RMK A01 T02500120  RH  044%=      5-min Rain = 0
KVA1 121342Z 21006KT 25/12 A3009 RMK A01 T02500119  RH  044%=      5-min Rain = 0
KVA1 121343Z 21005KT 25/12 A3009 RMK A01 T02500119  RH  044%=      5-min Rain = 0
KVA1 121344Z 22005KT 25/12 A3009 RMK A01 T02500119  RH  044%=      5-min Rain = 0
KVA1 121345Z 22005KT 25/12 A3009 RMK A01 T02500120  RH  044%=      5-min Rain = 0
KVA1 121346Z 21006KT 25/12 A3009 RMK A01 T02510120  RH  044%=      5-min Rain = 0
KVA1 121347Z 22006KT 25/12 A3009 RMK A01 T02510120  RH  044%=      5-min Rain = 0
KVA1 121348Z 20005KT 25/12 A3009 RMK A01 T02510120  RH  044%=      5-min Rain = 0
KVA1 121349Z 22005KT 25/12 A3009 RMK A01 T02520121  RH  044%=      5-min Rain = 0
KVA1 121350Z 21006KT 25/12 A3009 RMK A01 T02520120  RH  044%=      5-min Rain = 0
KVA1 121351Z 21006KT 25/12 A3009 RMK A01 T02530121  RH  044%=      5-min Rain = 0
KVA1 121352Z 22006KT 25/12 A3009 RMK A01 T02540120  RH  043%=      5-min Rain = 0
KVA1 121353Z 21006KT 25/12 A3009 RMK A01 T02530120  RH  043%=      5-min Rain = 0
KVA1 121354Z 20005KT 25/12 A3009 RMK A01 T02530120  RH  043%=      5-min Rain = 0
KVA1 121355Z 20006KT 25/12 A3009 RMK A01 T02530120  RH  043%=      5-min Rain = 0
KVA1 121356Z 20006KT 25/12 A3009 RMK A01 T02540121  RH  044%=      5-min Rain = 0
KVA1 121357Z 20006KT 25/12 A3009 RMK A01 T02540121  RH  043%=      5-min Rain = 0
KVA1 121358Z 20005KT 25/12 A3009 RMK A01 T02540121  RH  043%=      5-min Rain = 0
KVA1 121359Z 21004KT 26/12 A3009 RMK A01 T02550122  RH  044%=      5-min Rain = 0
KVA1 121400Z 21005KT 26/12 A3009 RMK A01 T02560122  RH  043%=      5-min Rain = 0
KVA1 121401Z 21006KT 26/12 A3009 RMK A01 T02570121  RH  043%=      5-min Rain = 0
KVA1 121402Z 21006KT 26/12 A3009 RMK A01 T02570121  RH  043%=      5-min Rain = 0
KVA1 121403Z 21004KT 26/12 A3009 RMK A01 T02570121  RH  043%=      5-min Rain = 0
KVA1 121404Z 21004KT 26/12 A3009 RMK A01 T02580122  RH  043%=      5-min Rain = 0
KVA1 121405Z 20006KT 26/12 A3009 RMK A01 T02590123  RH  043%=      5-min Rain = 0
KVA1 121406Z 20004KT 26/12 A3009 RMK A01 T02600122  RH  042%=      5-min Rain = 0
KVA1 121407Z 21006KT 26/12 A3009 RMK A01 T02600122  RH  042%=      5-min Rain = 0
KVA1 121408Z 21006KT 26/12 A3009 RMK A01 T02600121  RH  042%=      5-min Rain = 0
KVA1 121409Z 22005KT 26/12 A3009 RMK A01 T02600121  RH  042%=      5-min Rain = 0
KVA1 121410Z 22006KT 26/12 A3009 RMK A01 T02600120  RH  042%=      5-min Rain = 0
KVA1 121411Z 21005KT 26/12 A3009 RMK A01 T02600122  RH  042%=      5-min Rain = 0
KVA1 121412Z 21005KT 26/12 A3009 RMK A01 T02610122  RH  042%=      5-min Rain = 0
KVA1 121413Z 22006KT 26/12 A3009 RMK A01 T02620122  RH  042%=      5-min Rain = 0
KVA1 121414Z 21005KT 26/12 A3009 RMK A01 T02620121  RH  042%=      5-min Rain = 0
KVA1 121415Z 21004KT 26/12 A3009 RMK A01 T02620121  RH  041%=      5-min Rain = 0
KVA1 121416Z 20005KT 26/12 A3009 RMK A01 T02630121  RH  041%=      5-min Rain = 0
KVA1 121417Z 21005KT 26/12 A3009 RMK A01 T02630122  RH  041%=      5-min Rain = 0
KVA1 121418Z 20004KT 26/12 A3009 RMK A01 T02630121  RH  041%=      5-min Rain = 0
KVA1 121419Z 20005KT 26/12 A3009 RMK A01 T02630122  RH  041%=      5-min Rain = 0
KVA1 121420Z 20005KT 26/12 A3009 RMK A01 T02640123  RH  041%=      5-min Rain = 0
KVA1 121421Z 18005KT 27/12 A3009 RMK A01 T02650123  RH  041%=      5-min Rain = 0
KVA1 121422Z 20005KT 27/12 A3009 RMK A01 T02660124  RH  041%=      5-min Rain = 0
KVA1 121423Z 20005KT 27/12 A3009 RMK A01 T02670122  RH  041%=      5-min Rain = 0
KVA1 121424Z 20005KT 27/12 A3009 RMK A01 T02670123  RH  041%=      5-min Rain = 0
KVA1 121425Z 20006KT 27/12 A3009 RMK A01 T02670124  RH  041%=      5-min Rain = 0
KVA1 121426Z 21006KT 27/12 A3009 RMK A01 T02670122  RH  040%=      5-min Rain = 0
KVA1 121427Z 21006KT 27/12 A3009 RMK A01 T02680123  RH  041%=      5-min Rain = 0
KVA1 121428Z 21006KT 27/12 A3009 RMK A01 T02690123  RH  040%=      5-min Rain = 0
KVA1 121429Z 21005KT 27/12 A3009 RMK A01 T02700123  RH  040%=      5-min Rain = 0
KVA1 121430Z 21005KT 27/12 A3009 RMK A01 T02710124  RH  040%=      5-min Rain = 0
KVA1 121431Z 22006KT 27/12 A3009 RMK A01 T02710123  RH  040%=      5-min Rain = 0
KVA1 121432Z 22006KT 27/12 A3009 RMK A01 T02720123  RH  039%=      5-min Rain = 0
KVA1 121433Z 21007KT 27/12 A3009 RMK A01 T02730122  RH  039%=      5-min Rain = 0
KVA1 121434Z 22005KT 27/12 A3009 RMK A01 T02720122  RH  039%=      5-min Rain = 0
KVA1 121435Z 21005KT 27/12 A3009 RMK A01 T02730124  RH  040%=      5-min Rain = 0
KVA1 121436Z 20004KT 27/12 A3009 RMK A01 T02740124  RH  039%=      5-min Rain = 0
KVA1 121437Z 21005KT 28/13 A3008 RMK A01 T02760126  RH  039%=      5-min Rain = 0
KVA1 121438Z 20006KT 28/12 A3008 RMK A01 T02780124  RH  039%=      5-min Rain = 0
KVA1 121439Z 20006KT 28/12 A3008 RMK A01 T02780123  RH  038%=      5-min Rain = 0
KVA1 121440Z 21004KT 28/12 A3008 RMK A01 T02770124  RH  039%=      5-min Rain = 0
KVA1 121441Z 20006KT 28/12 A3008 RMK A01 T02770123  RH  039%=      5-min Rain = 0
KVA1 121442Z 21006KT 28/12 A3008 RMK A01 T02770122  RH  038%=      5-min Rain = 0
KVA1 121443Z 20005KT 28/12 A3008 RMK A01 T02770123  RH  038%=      5-min Rain = 0
KVA1 121444Z 19006KT 28/12 A3008 RMK A01 T02780122  RH  038%=      5-min Rain = 0
KVA1 121445Z 18005KT 28/12 A3008 RMK A01 T02780122  RH  038%=      5-min Rain = 0
KVA1 121446Z 19004KT 28/12 A3008 RMK A01 T02780123  RH  038%=      5-min Rain = 0
KVA1 121447Z 18005KT 28/12 A3008 RMK A01 T02790123  RH  038%=      5-min Rain = 0
KVA1 121448Z 19006KT 28/12 A3008 RMK A01 T02810122  RH  037%=      5-min Rain = 0
KVA1 121449Z 18007KT 28/12 A3008 RMK A01 T02800122  RH  037%=      5-min Rain = 0
KVA1 121450Z 19005KT 28/12 A3008 RMK A01 T02800122  RH  037%=      5-min Rain = 0
KVA1 121451Z 19007KT 28/12 A3008 RMK A01 T02800121  RH  037%=      5-min Rain = 0
KVA1 121452Z 19004KT 28/12 A3008 RMK A01 T02800121  RH  037%=      5-min Rain = 0
KVA1 121453Z 19004KT 28/12 A3008 RMK A01 T02810122  RH  038%=      5-min Rain = 0
KVA1 121454Z 18005KT 28/12 A3008 RMK A01 T02810124  RH  038%=      5-min Rain = 0
KVA1 121455Z 20005KT 28/12 A3008 RMK A01 T02830124  RH  037%=      5-min Rain = 0
KVA1 121456Z 20005KT 29/12 A3008 RMK A01 T02860122  RH  036%=      5-min Rain = 0
KVA1 121457Z 20005KT 29/12 A3009 RMK A01 T02850122  RH  036%=      5-min Rain = 0
KVA1 121458Z 19006KT 28/12 A3009 RMK A01 T02830123  RH  037%=      5-min Rain = 0
KVA1 121459Z 18006KT 28/12 A3009 RMK A01 T02840122  RH  037%=      5-min Rain = 0
KVA1 121500Z 18005KT 28/12 A3009 RMK A01 T02840123  RH  037%=      5-min Rain = 0
KVA1 121501Z 20006KT 28/12 A3009 RMK A01 T02840123  RH  037%=      5-min Rain = 0
KVA1 121502Z 19006KT 29/12 A3009 RMK A01 T02850122  RH  037%=      5-min Rain = 0
KVA1 121503Z 20006KT 29/12 A3009 RMK A01 T02850123  RH  037%=      5-min Rain = 0
KVA1 121504Z 18005KT 28/12 A3009 RMK A01 T02840122  RH  037%=      5-min Rain = 0
KVA1 121505Z 20006KT 28/12 A3008 RMK A01 T02830122  RH  037%=      5-min Rain = 0
KVA1 121506Z 20006KT 28/12 A3008 RMK A01 T02840122  RH  037%=      5-min Rain = 0
KVA1 121507Z 20006KT 29/12 A3008 RMK A01 T02850122  RH  037%=      5-min Rain = 0
KVA1 121508Z 20006KT 29/12 A3008 RMK A01 T02860123  RH  036%=      5-min Rain = 0
KVA1 121509Z 20007KT 29/12 A3008 RMK A01 T02890123  RH  036%=      5-min Rain = 0
KVA1 121510Z 19006KT 29/12 A3008 RMK A01 T02890122  RH  036%=      5-min Rain = 0
KVA1 121511Z 19005KT 29/12 A3008 RMK A01 T02880123  RH  036%=      5-min Rain = 0
KVA1 121512Z 20006KT 29/12 A3008 RMK A01 T02890123  RH  036%=      5-min Rain = 0
KVA1 121513Z 21006KT 29/12 A3008 RMK A01 T02890123  RH  036%=      5-min Rain = 0
KVA1 121514Z 21007KT 29/12 A3008 RMK A01 T02910124  RH  036%=      5-min Rain = 0
KVA1 121515Z 19007KT 29/12 A3008 RMK A01 T02920124  RH  035%=      5-min Rain = 0
KVA1 121516Z 18007KT 29/12 A3008 RMK A01 T02930124  RH  035%=      5-min Rain = 0
KVA1 121517Z 19007KT 29/12 A3008 RMK A01 T02940123  RH  035%=      5-min Rain = 0
KVA1 121518Z 19006KT 29/12 A3008 RMK A01 T02930124  RH  035%=      5-min Rain = 0
KVA1 121519Z 18008KT 29/13 A3008 RMK A01 T02930125  RH  036%=      5-min Rain = 0
KVA1 121520Z 18007KT 30/13 A3008 RMK A01 T02950125  RH  035%=      5-min Rain = 0
KVA1 121521Z 18006KT 30/12 A3008 RMK A01 T02970124  RH  035%=      5-min Rain = 0
KVA1 121522Z 20007KT 30/12 A3008 RMK A01 T02970124  RH  034%=      5-min Rain = 0
KVA1 121523Z 18007KT 30/12 A3008 RMK A01 T02970123  RH  034%=      5-min Rain = 0
KVA1 121524Z 18007KT 30/12 A3008 RMK A01 T02970123  RH  034%=      5-min Rain = 0
KVA1 121525Z 19006KT 30/12 A3008 RMK A01 T02980124  RH  034%=      5-min Rain = 0
KVA1 121526Z 18006KT 30/12 A3008 RMK A01 T02980124  RH  034%=      5-min Rain = 0
KVA1 121527Z 19007KT 30/13 A3008 RMK A01 T02990125  RH  034%=      5-min Rain = 0
KVA1 121528Z 20007KT 30/12 A3008 RMK A01 T03000124  RH  034%=      5-min Rain = 0
KVA1 121529Z 20007KT 30/12 A3008 RMK A01 T03010124  RH  034%=      5-min Rain = 0
KVA1 121530Z 18006KT 30/12 A3008 RMK A01 T03020123  RH  033%=      5-min Rain = 0
KVA1 121531Z 20006KT 30/12 A3008 RMK A01 T03000124  RH  034%=      5-min Rain = 0
KVA1 121532Z 21004KT 30/12 A3008 RMK A01 T03000123  RH  034%=      5-min Rain = 0
KVA1 121533Z 20005KT 30/13 A3008 RMK A01 T02990125  RH  034%=      5-min Rain = 0
KVA1 121534Z 18004KT 30/12 A3008 RMK A01 T03000124  RH  034%=      5-min Rain = 0
KVA1 121535Z 19005KT 30/13 A3008 RMK A01 T03010125  RH  034%=      5-min Rain = 0
KVA1 121536Z 19005KT 30/13 A3008 RMK A01 T03010125  RH  034%=      5-min Rain = 0
KVA1 121537Z 19004KT 30/12 A3008 RMK A01 T03020123  RH  033%=      5-min Rain = 0
KVA1 121538Z 18004KT 30/13 A3008 RMK A01 T03020126  RH  034%=      5-min Rain = 0
KVA1 121539Z 21006KT 30/13 A3008 RMK A01 T03030126  RH  034%=      5-min Rain = 0
KVA1 121540Z 21006KT 31/12 A3008 RMK A01 T03060124  RH  033%=      5-min Rain = 0
KVA1 121541Z 22005KT 31/12 A3008 RMK A01 T03070122  RH  032%=      5-min Rain = 0
KVA1 121542Z 20003KT 31/12 A3008 RMK A01 T03070124  RH  032%=      5-min Rain = 0
KVA1 121543Z 17006KT 31/13 A3008 RMK A01 T03070126  RH  033%=      5-min Rain = 0
KVA1 121544Z 19005KT 31/13 A3008 RMK A01 T03070125  RH  033%=      5-min Rain = 0
KVA1 121545Z 21005KT 31/12 A3008 RMK A01 T03070124  RH  033%=      5-min Rain = 0
KVA1 121546Z 22004KT 31/12 A3008 RMK A01 T03060124  RH  033%=      5-min Rain = 0
KVA1 121547Z 20006KT 31/13 A3008 RMK A01 T03060125  RH  033%=      5-min Rain = 0
KVA1 121548Z 21005KT 31/12 A3008 RMK A01 T03070124  RH  033%=      5-min Rain = 0
KVA1 121549Z 20005KT 31/12 A3008 RMK A01 T03070124  RH  033%=      5-min Rain = 0
KVA1 121550Z 21005KT 31/12 A3008 RMK A01 T03070123  RH  032%=      5-min Rain = 0
KVA1 121551Z 21006KT 31/12 A3008 RMK A01 T03060123  RH  032%=      5-min Rain = 0
KVA1 121552Z 22005KT 31/13 A3008 RMK A01 T03060125  RH  033%=      5-min Rain = 0
KVA1 121553Z 21004KT 31/13 A3008 RMK A01 T03080125  RH  033%=      5-min Rain = 0
KVA1 121554Z 23004KT 31/13 A3008 RMK A01 T03080125  RH  032%=      5-min Rain = 0
KVA1 121555Z 22004KT 31/12 A3008 RMK A01 T03080123  RH  032%=      5-min Rain = 0
KVA1 121556Z 20006KT 31/13 A3008 RMK A01 T03080126  RH  033%=      5-min Rain = 0
KVA1 121557Z 21005KT 31/13 A3008 RMK A01 T03090126  RH  033%=      5-min Rain = 0
KVA1 121558Z 19004KT 31/13 A3008 RMK A01 T03130128  RH  032%=      5-min Rain = 0
KVA1 121559Z 16004KT 32/13 A3008 RMK A01 T03160128  RH  032%=      5-min Rain = 0
KVA1 121600Z 17003KT 32/13 A3008 RMK A01 T03170128  RH  032%=      5-min Rain = 0
KVA1 121601Z 16006KT 32/13 A3008 RMK A01 T03180128  RH  031%=      5-min Rain = 0
KVA1 121602Z 19007KT 32/13 A3008 RMK A01 T03190128  RH  031%=      5-min Rain = 0
KVA1 121603Z 21008KT 32/13 A3008 RMK A01 T03190127  RH  031%=      5-min Rain = 0
KVA1 121604Z 19005KT 32/12 A3008 RMK A01 T03160124  RH  031%=      5-min Rain = 0
KVA1 121605Z 17004KT 31/13 A3008 RMK A01 T03120125  RH  032%=      5-min Rain = 0
KVA1 121606Z 17005KT 31/13 A3008 RMK A01 T03120127  RH  032%=      5-min Rain = 0
KVA1 121607Z 20004KT 31/13 A3008 RMK A01 T03140127  RH  032%=      5-min Rain = 0
KVA1 121608Z 19004KT 31/13 A3008 RMK A01 T03140126  RH  032%=      5-min Rain = 0
KVA1 121609Z 17003KT 31/13 A3008 RMK A01 T03130126  RH  032%=      5-min Rain = 0
KVA1 121610Z 18004KT 31/13 A3008 RMK A01 T03130127  RH  032%=      5-min Rain = 0
KVA1 121611Z 19006KT 31/13 A3008 RMK A01 T03140127  RH  032%=      5-min Rain = 0
KVA1 121612Z 18005KT 32/13 A3008 RMK A01 T03150129  RH  032%=      5-min Rain = 0
KVA1 121613Z 19006KT 32/13 A3009 RMK A01 T03180129  RH  032%=      5-min Rain = 0
KVA1 121614Z 19006KT 32/13 A3009 RMK A01 T03190129  RH  031%=      5-min Rain = 0
KVA1 121615Z 19003KT 32/13 A3009 RMK A01 T03190130  RH  032%=      5-min Rain = 0
KVA1 121616Z 18005KT 32/13 A3009 RMK A01 T03200130  RH  031%=      5-min Rain = 0
KVA1 121617Z 18006KT 32/13 A3009 RMK A01 T03220129  RH  031%=      5-min Rain = 0
KVA1 121618Z 19005KT 32/13 A3009 RMK A01 T03230129  RH  031%=      5-min Rain = 0
KVA1 121619Z 16004KT 32/13 A3008 RMK A01 T03230128  RH  031%=      5-min Rain = 0
KVA1 121620Z 16004KT 32/13 A3008 RMK A01 T03240130  RH  031%=      5-min Rain = 0
KVA1 121621Z 16004KT 33/13 A3008 RMK A01 T03260130  RH  030%=      5-min Rain = 0
KVA1 121622Z 18005KT 33/13 A3008 RMK A01 T03270129  RH  030%=      5-min Rain = 0
KVA1 121623Z 15005KT 33/13 A3008 RMK A01 T03250128  RH  030%=      5-min Rain = 0
KVA1 121624Z 13004KT 32/13 A3008 RMK A01 T03240130  RH  031%=      5-min Rain = 0
KVA1 121625Z 13003KT 32/13 A3008 RMK A01 T03240129  RH  030%=      5-min Rain = 0
KVA1 121626Z 11001KT 32/13 A3008 RMK A01 T03230127  RH  030%=      5-min Rain = 0
KVA1 121627Z 17004KT 32/13 A3008 RMK A01 T03230128  RH  031%=      5-min Rain = 0
KVA1 121628Z 20007KT 32/13 A3008 RMK A01 T03230127  RH  030%=      5-min Rain = 0
KVA1 121629Z 20005KT 32/13 A3008 RMK A01 T03240127  RH  030%=      5-min Rain = 0
KVA1 121630Z 20005KT 33/13 A3008 RMK A01 T03260128  RH  030%=      5-min Rain = 0
KVA1 121631Z 17005KT 33/13 A3008 RMK A01 T03290127  RH  029%=      5-min Rain = 0
KVA1 121632Z 17001KT 33/13 A3008 RMK A01 T03280126  RH  029%=      5-min Rain = 0
KVA1 121633Z 18003KT 33/13 A3008 RMK A01 T03270126  RH  029%=      5-min Rain = 0
KVA1 121634Z 19002KT 33/13 A3008 RMK A01 T03260127  RH  030%=      5-min Rain = 0
KVA1 121635Z 20005KT 33/13 A3008 RMK A01 T03270128  RH  030%=      5-min Rain = 0
KVA1 121636Z 18005KT 33/13 A3008 RMK A01 T03300128  RH  029%=      5-min Rain = 0
KVA1 121637Z 20006KT 33/13 A3008 RMK A01 T03320128  RH  029%=      5-min Rain = 0
KVA1 121638Z 20005KT 33/13 A3008 RMK A01 T03330126  RH  028%=      5-min Rain = 0
KVA1 121639Z 22005KT 33/13 A3008 RMK A01 T03320127  RH  029%=      5-min Rain = 0
KVA1 121640Z 23004KT 33/13 A3008 RMK A01 T03320125  RH  028%=      5-min Rain = 0
KVA1 121641Z 24002KT 33/12 A3008 RMK A01 T03300123  RH  028%=      5-min Rain = 0
KVA1 121642Z 22002KT 33/12 A3008 RMK A01 T03300123  RH  028%=      5-min Rain = 0
KVA1 121643Z 16006KT 33/13 A3008 RMK A01 T03310126  RH  029%=      5-min Rain = 0
KVA1 121644Z 18008KT 33/13 A3008 RMK A01 T03330128  RH  029%=      5-min Rain = 0
KVA1 121645Z 20005KT 34/13 A3008 RMK A01 T03360128  RH  029%=      5-min Rain = 0
KVA1 121646Z 18005KT 34/13 A3008 RMK A01 T03370128  RH  028%=      5-min Rain = 0
KVA1 121647Z 18007KT 34/13 A3008 RMK A01 T03380129  RH  028%=      5-min Rain = 0
KVA1 121648Z 20003KT 34/13 A3008 RMK A01 T03370128  RH  028%=      5-min Rain = 0
KVA1 121649Z 16004KT 34/13 A3008 RMK A01 T03360126  RH  028%=      5-min Rain = 0
KVA1 121650Z 15006KT 34/13 A3008 RMK A01 T03370127  RH  028%=      5-min Rain = 0
KVA1 121651Z 15008KT 34/13 A3008 RMK A01 T03390128  RH  028%=      5-min Rain = 0
KVA1 121652Z 12004KT 34/13 A3008 RMK A01 T03400127  RH  028%=      5-min Rain = 0
KVA1 121653Z 14005KT 34/13 A3008 RMK A01 T03390128  RH  028%=      5-min Rain = 0
KVA1 121654Z 18004KT 34/13 A3008 RMK A01 T03390128  RH  028%=      5-min Rain = 0
KVA1 121655Z 19004KT 34/13 A3008 RMK A01 T03390127  RH  028%=      5-min Rain = 0
KVA1 121656Z 18003KT 34/13 A3008 RMK A01 T03400126  RH  027%=      5-min Rain = 0
KVA1 121657Z 21004KT 34/13 A3008 RMK A01 T03410126  RH  027%=      5-min Rain = 0
KVA1 121658Z 19005KT 34/13 A3008 RMK A01 T03420128  RH  028%=      5-min Rain = 0
KVA1 121659Z 22006KT 35/12 A3008 RMK A01 T03450124  RH  026%=      5-min Rain = 0
KVA1 121700Z 22005KT 34/12 A3008 RMK A01 T03440123  RH  026%=      5-min Rain = 0
KVA1 121701Z 20005KT 34/12 A3008 RMK A01 T03420124  RH  027%=      5-min Rain = 0
KVA1 121702Z 21007KT 34/12 A3008 RMK A01 T03420124  RH  027%=      5-min Rain = 0
KVA1 121703Z 22003KT 34/12 A3008 RMK A01 T03420123  RH  026%=      5-min Rain = 0
KVA1 121704Z 23001KT 34/12 A3008 RMK A01 T03410122  RH  027%=      5-min Rain = 0
KVA1 121705Z 17001KT 34/12 A3008 RMK A01 T03410123  RH  027%=      5-min Rain = 0
KVA1 121706Z 16003KT 34/13 A3008 RMK A01 T03420126  RH  027%=      5-min Rain = 0
KVA1 121707Z 16006KT 35/13 A3008 RMK A01 T03460127  RH  027%=      5-min Rain = 0
KVA1 121708Z 18005KT 35/13 A3008 RMK A01 T03470126  RH  026%=      5-min Rain = 0
KVA1 121709Z 20006KT 35/13 A3008 RMK A01 T03480126  RH  026%=      5-min Rain = 0
KVA1 121710Z 20007KT 35/12 A3008 RMK A01 T03470124  RH  026%=      5-min Rain = 0
KVA1 121711Z 18005KT 35/12 A3008 RMK A01 T03470123  RH  026%=      5-min Rain = 0
KVA1 121712Z 19006KT 35/12 A3008 RMK A01 T03450123  RH  026%=      5-min Rain = 0
KVA1 121713Z 18005KT 35/12 A3008 RMK A01 T03460124  RH  026%=      5-min Rain = 0
KVA1 121714Z 22006KT 35/12 A3008 RMK A01 T03480122  RH  025%=      5-min Rain = 0
KVA1 121715Z 19006KT 35/12 A3008 RMK A01 T03480119  RH  025%=      5-min Rain = 0
KVA1 121716Z 22005KT 35/12 A3008 RMK A01 T03460120  RH  025%=      5-min Rain = 0
KVA1 121717Z 25003KT 35/12 A3008 RMK A01 T03470119  RH  025%=      5-min Rain = 0
KVA1 121718Z 28003KT 35/12 A3008 RMK A01 T03470118  RH  025%=      5-min Rain = 0
KVA1 121719Z 22001KT 35/12 A3008 RMK A01 T03470120  RH  025%=      5-min Rain = 0
KVA1 121720Z 21001KT 35/12 A3008 RMK A01 T03470120  RH  025%=      5-min Rain = 0
KVA1 121721Z 21002KT 35/12 A3008 RMK A01 T03490119  RH  025%=      5-min Rain = 0
KVA1 121722Z 25003KT 35/12 A3007 RMK A01 T03500121  RH  025%=      5-min Rain = 0
KVA1 121723Z 22002KT 35/12 A3007 RMK A01 T03520123  RH  025%=      5-min Rain = 0
KVA1 121724Z 17004KT 35/12 A3007 RMK A01 T03540124  RH  025%=      5-min Rain = 0
KVA1 121725Z 17005KT 35/13 A3007 RMK A01 T03540125  RH  025%=      5-min Rain = 0
KVA1 121726Z 20006KT 35/12 A3007 RMK A01 T03540123  RH  025%=      5-min Rain = 0
KVA1 121727Z 20005KT 35/12 A3007 RMK A01 T03540120  RH  024%=      5-min Rain = 0
KVA1 121728Z 22005KT 36/12 A3007 RMK A01 T03550120  RH  024%=      5-min Rain = 0
KVA1 121729Z 22002KT 36/12 A3007 RMK A01 T03550119  RH  024%=      5-min Rain = 0
KVA1 121730Z 20001KT 35/12 A3007 RMK A01 T03540118  RH  024%=      5-min Rain = 0
KVA1 121731Z 21001KT 35/12 A3007 RMK A01 T03540117  RH  024%=      5-min Rain = 0
KVA1 121732Z 15004KT 36/12 A3007 RMK A01 T03550121  RH  024%=      5-min Rain = 0
KVA1 121733Z 16004KT 36/12 A3007 RMK A01 T03560122  RH  024%=      5-min Rain = 0
KVA1 121734Z 15004KT 36/12 A3007 RMK A01 T03570122  RH  024%=      5-min Rain = 0
KVA1 121735Z 17004KT 36/12 A3007 RMK A01 T03580122  RH  024%=      5-min Rain = 0
KVA1 121736Z 19004KT 36/12 A3007 RMK A01 T03600124  RH  024%=      5-min Rain = 0
KVA1 121737Z 16003KT 36/12 A3007 RMK A01 T03610122  RH  024%=      5-min Rain = 0
KVA1 121738Z 19002KT 36/12 A3007 RMK A01 T03620124  RH  024%=      5-min Rain = 0
KVA1 121739Z 21002KT 36/12 A3007 RMK A01 T03620123  RH  024%=      5-min Rain = 0
KVA1 121740Z 18005KT 36/12 A3007 RMK A01 T03610123  RH  024%=      5-min Rain = 0
KVA1 121741Z 22003KT 36/12 A3007 RMK A01 T03620120  RH  023%=      5-min Rain = 0
KVA1 121742Z 15003KT 36/12 A3007 RMK A01 T03640121  RH  023%=      5-min Rain = 0
KVA1 121743Z 16005KT 36/12 A3007 RMK A01 T03640121  RH  023%=      5-min Rain = 0
KVA1 121744Z 19006KT 37/12 A3007 RMK A01 T03660121  RH  023%=      5-min Rain = 0
KVA1 121745Z 20005KT 37/12 A3007 RMK A01 T03650121  RH  023%=      5-min Rain = 0
KVA1 121746Z 18008KT 37/12 A3007 RMK A01 T03660119  RH  023%=      5-min Rain = 0
KVA1 121747Z 19006KT 36/12 A3007 RMK A01 T03630118  RH  023%=      5-min Rain = 0
KVA1 121748Z 18005KT 36/12 A3007 RMK A01 T03630118  RH  023%=      5-min Rain = 0
KVA1 121749Z 18004KT 36/12 A3007 RMK A01 T03630116  RH  023%=      5-min Rain = 0
KVA1 121750Z 19002KT 36/11 A3007 RMK A01 T03610112  RH  022%=      5-min Rain = 0
KVA1 121751Z 30002KT 36/11 A3007 RMK A01 T03590110  RH  022%=      5-min Rain = 0
KVA1 121752Z 33003KT 36/11 A3007 RMK A01 T03590107  RH  022%=      5-min Rain = 0
KVA1 121753Z 36001KT 36/11 A3007 RMK A01 T03620107  RH  021%=      5-min Rain = 0
KVA1 121754Z 17002KT 36/11 A3007 RMK A01 T03640112  RH  022%=      5-min Rain = 0
KVA1 121755Z 20006KT 37/12 A3007 RMK A01 T03670117  RH  022%=      5-min Rain = 0
KVA1 121756Z 18005KT 37/12 A3007 RMK A01 T03680115  RH  022%=      5-min Rain = 0
KVA1 121757Z 18005KT 37/11 A3007 RMK A01 T03680111  RH  021%=      5-min Rain = 0
KVA1 121758Z 16005KT 37/11 A3007 RMK A01 T03670109  RH  021%=      5-min Rain = 0
KVA1 121759Z 18004KT 37/11 A3007 RMK A01 T03670110  RH  021%=      5-min Rain = 0
KVA1 121800Z 24004KT 37/11 A3007 RMK A01 T03700106  RH  020%=      5-min Rain = 0
KVA1 121801Z 22003KT 37/11 A3007 RMK A01 T03720106  RH  020%=      5-min Rain = 0
KVA1 121802Z 23004KT 37/10 A3007 RMK A01 T03740099  RH  019%=      5-min Rain = 0
KVA1 121803Z 25005KT 37/10 A3007 RMK A01 T03740104  RH  020%=      5-min Rain = 0
KVA1 121804Z 21003KT 37/10 A3007 RMK A01 T03720104  RH  020%=      5-min Rain = 0
KVA1 121805Z 20004KT 37/10 A3007 RMK A01 T03690103  RH  020%=      5-min Rain = 0
KVA1 121806Z 20003KT 37/10 A3007 RMK A01 T03670100  RH  020%=      5-min Rain = 0
KVA1 121807Z 20001KT 36/10 A3007 RMK A01 T03630102  RH  020%=      5-min Rain = 0
KVA1 121808Z 16002KT 36/10 A3007 RMK A01 T03620104  RH  021%=      5-min Rain = 0
KVA1 121809Z 14003KT 36/10 A3007 RMK A01 T03640103  RH  021%=      5-min Rain = 0
KVA1 121810Z 10001KT 37/10 A3006 RMK A01 T03650101  RH  020%=      5-min Rain = 0
KVA1 121811Z 16002KT 37/10 A3006 RMK A01 T03670098  RH  020%=      5-min Rain = 0
KVA1 121812Z 17004KT 37/08 A3006 RMK A01 T03710080  RH  017%=      5-min Rain = 0
KVA1 121813Z 13005KT 37/08 A3006 RMK A01 T03730079  RH  017%=      5-min Rain = 0
KVA1 121814Z 12006KT 38/07 A3006 RMK A01 T03760074  RH  016%=      5-min Rain = 0
KVA1 121815Z 13005KT 38/07 A3006 RMK A01 T03760074  RH  016%=      5-min Rain = 0
KVA1 121816Z 14003KT 38/08 A3006 RMK A01 T03770078  RH  016%=      5-min Rain = 0
KVA1 121817Z 13005KT 38/08 A3006 RMK A01 T03780080  RH  016%=      5-min Rain = 0
KVA1 121818Z 14002KT 38/08 A3006 RMK A01 T03780075  RH  016%=      5-min Rain = 0
KVA1 121819Z 11005KT 38/08 A3006 RMK A01 T03760079  RH  016%=      5-min Rain = 0
KVA1 121820Z 10005KT 38/09 A3006 RMK A01 T03760086  RH  017%=      5-min Rain = 0
KVA1 121821Z 09003KT 38/09 A3006 RMK A01 T03750090  RH  018%=      5-min Rain = 0
KVA1 121822Z 10002KT 38/09 A3006 RMK A01 T03770091  RH  018%=      5-min Rain = 0
KVA1 121823Z 13003KT 38/09 A3006 RMK A01 T03770089  RH  018%=      5-min Rain = 0
KVA1 121824Z 12003KT 38/09 A3006 RMK A01 T03760088  RH  017%=      5-min Rain = 0
KVA1 121825Z 11003KT 38/09 A3006 RMK A01 T03750088  RH  018%=      5-min Rain = 0
KVA1 121826Z 10004KT 38/09 A3006 RMK A01 T03760086  RH  017%=      5-min Rain = 0
KVA1 121827Z 10002KT 38/09 A3006 RMK A01 T03760086  RH  017%=      5-min Rain = 0
KVA1 121828Z 09002KT 38/09 A3006 RMK A01 T03770085  RH  017%=      5-min Rain = 0
KVA1 121829Z 06001KT 38/08 A3005 RMK A01 T03760083  RH  017%=      5-min Rain = 0
KVA1 121830Z 15001KT 38/08 A3005 RMK A01 T03760082  RH  017%=      5-min Rain = 0
KVA1 121831Z 15004KT 38/08 A3005 RMK A01 T03780079  RH  016%=      5-min Rain = 0
KVA1 121832Z 22003KT 38/07 A3005 RMK A01 T03820073  RH  015%=      5-min Rain = 0
KVA1 121833Z 19007KT 38/08 A3005 RMK A01 T03820083  RH  016%=      5-min Rain = 0
KVA1 121834Z 19007KT 38/09 A3005 RMK A01 T03810090  RH  017%=      5-min Rain = 0
KVA1 121835Z 18005KT 38/09 A3005 RMK A01 T03780087  RH  017%=      5-min Rain = 0
KVA1 121836Z 18008KT 38/09 A3005 RMK A01 T03770085  RH  017%=      5-min Rain = 0
KVA1 121837Z 22005KT 38/07 A3005 RMK A01 T03790074  RH  016%=      5-min Rain = 0
KVA1 121838Z 20004KT 38/07 A3005 RMK A01 T03780067  RH  015%=      5-min Rain = 0
KVA1 121839Z 18006KT 38/08 A3005 RMK A01 T03780077  RH  016%=      5-min Rain = 0
KVA1 121840Z 18008KT 38/08 A3005 RMK A01 T03810078  RH  016%=      5-min Rain = 0
KVA1 121841Z 19003KT 38/08 A3005 RMK A01 T03790076  RH  016%=      5-min Rain = 0
KVA1 121842Z 14004KT 38/08 A3005 RMK A01 T03770077  RH  016%=      5-min Rain = 0
KVA1 121843Z 16002KT 38/08 A3005 RMK A01 T03760075  RH  016%=      5-min Rain = 0
KVA1 121844Z 19006KT 38/08 A3005 RMK A01 T03750077  RH  016%=      5-min Rain = 0
KVA1 121845Z 19006KT 38/08 A3005 RMK A01 T03750076  RH  016%=      5-min Rain = 0
KVA1 121846Z 21004KT 38/07 A3005 RMK A01 T03750072  RH  016%=      5-min Rain = 0
KVA1 121847Z 21002KT 37/07 A3005 RMK A01 T03740070  RH  016%=      5-min Rain = 0
KVA1 121848Z 15001KT 37/07 A3005 RMK A01 T03720071  RH  016%=      5-min Rain = 0
KVA1 121849Z 17001KT 37/07 A3005 RMK A01 T03740072  RH  016%=      5-min Rain = 0
KVA1 121850Z 18005KT 38/08 A3005 RMK A01 T03750077  RH  016%=      5-min Rain = 0
KVA1 121851Z 17004KT 38/08 A3005 RMK A01 T03750075  RH  016%=      5-min Rain = 0
KVA1 121852Z 17003KT 37/07 A3005 RMK A01 T03740072  RH  016%=      5-min Rain = 0
KVA1 121853Z 23004KT 38/07 A3004 RMK A01 T03750068  RH  015%=      5-min Rain = 0
KVA1 121854Z 24002KT 38/07 A3004 RMK A01 T03750065  RH  015%=      5-min Rain = 0
KVA1 121855Z 27002KT 38/07 A3004 RMK A01 T03760065  RH  015%=      5-min Rain = 0
KVA1 121856Z 22003KT 38/07 A3004 RMK A01 T03780070  RH  015%=      5-min Rain = 0
KVA1 121857Z 12005KT 38/07 A3004 RMK A01 T03800072  RH  015%=      5-min Rain = 0
KVA1 121858Z 10007KT 38/07 A3004 RMK A01 T03820072  RH  015%=      5-min Rain = 0
KVA1 121859Z 09004KT 38/07 A3004 RMK A01 T03830074  RH  015%=      5-min Rain = 0
KVA1 121900Z 09002KT 38/07 A3004 RMK A01 T03790072  RH  015%=      5-min Rain = 0
KVA1 121901Z 10001KT 38/07 A3004 RMK A01 T03770072  RH  016%=      5-min Rain = 0
KVA1 121902Z 06000KT 38/07 A3004 RMK A01 T03770072  RH  016%=      5-min Rain = 0
KVA1 121903Z 16000KT 38/07 A3004 RMK A01 T03780072  RH  015%=      5-min Rain = 0
KVA1 121904Z 15002KT 38/07 A3004 RMK A01 T03800073  RH  015%=      5-min Rain = 0
KVA1 121905Z 17003KT 38/08 A3004 RMK A01 T03830077  RH  016%=      5-min Rain = 0
KVA1 121906Z 17004KT 38/08 A3004 RMK A01 T03830075  RH  015%=      5-min Rain = 0
KVA1 121907Z 20006KT 38/08 A3004 RMK A01 T03810075  RH  016%=      5-min Rain = 0
KVA1 121908Z 20008KT 38/07 A3003 RMK A01 T03830074  RH  015%=      5-min Rain = 0
KVA1 121909Z 20008KT 38/07 A3003 RMK A01 T03840074  RH  015%=      5-min Rain = 0
KVA1 121910Z 23008KT 38/07 A3003 RMK A01 T03840074  RH  015%=      5-min Rain = 0
KVA1 121911Z 24006G13KT 39/07 A3003 RMK A01 T03850071  RH  015%=      5-min Rain = 0
KVA1 121912Z 22005KT 38/07 A3003 RMK A01 T03830072  RH  015%=      5-min Rain = 0
KVA1 121913Z 25002KT 38/07 A3003 RMK A01 T03840071  RH  015%=      5-min Rain = 0
KVA1 121914Z 28003KT 38/07 A3003 RMK A01 T03810067  RH  015%=      5-min Rain = 0
KVA1 121915Z 29003KT 38/07 A3003 RMK A01 T03790067  RH  015%=      5-min Rain = 0
KVA1 121916Z 25001KT 38/07 A3003 RMK A01 T03790067  RH  015%=      5-min Rain = 0
KVA1 121917Z 24006KT 38/07 A3003 RMK A01 T03800068  RH  015%=      5-min Rain = 0
KVA1 121918Z 26006KT 39/07 A3003 RMK A01 T03850065  RH  014%=      5-min Rain = 0
KVA1 121919Z 31005KT 39/06 A3003 RMK A01 T03850062  RH  014%=      5-min Rain = 0
KVA1 121920Z 32005KT 38/06 A3003 RMK A01 T03830063  RH  014%=      5-min Rain = 0
KVA1 121921Z 31003KT 38/07 A3003 RMK A01 T03820066  RH  015%=      5-min Rain = 0
KVA1 121922Z 06001KT 38/07 A3003 RMK A01 T03820067  RH  015%=      5-min Rain = 0
KVA1 121923Z 12002KT 38/07 A3003 RMK A01 T03820069  RH  015%=      5-min Rain = 0
KVA1 121924Z 07003KT 38/07 A3003 RMK A01 T03840068  RH  015%=      5-min Rain = 0
KVA1 121925Z 17004KT 39/07 A3003 RMK A01 T03870068  RH  014%=      5-min Rain = 0
KVA1 121926Z 16009KT 39/07 A3003 RMK A01 T03870066  RH  014%=      5-min Rain = 0
KVA1 121927Z 15009KT 39/07 A3003 RMK A01 T03890068  RH  014%=      5-min Rain = 0
KVA1 121928Z 16008G13KT 39/07 A3003 RMK A01 T03940068  RH  014%=      5-min Rain = 0
KVA1 121929Z 18006KT 39/07 A3003 RMK A01 T03940066  RH  014%=      5-min Rain = 0
KVA1 121930Z 18006KT 39/07 A3003 RMK A01 T03920065  RH  014%=      5-min Rain = 0
KVA1 121931Z 16008KT 39/06 A3003 RMK A01 T03890063  RH  014%=      5-min Rain = 0
KVA1 121932Z 13009KT 39/06 A3002 RMK A01 T03900059  RH  013%=      5-min Rain = 0
KVA1 121933Z 11006KT 39/06 A3003 RMK A01 T03910056  RH  013%=      5-min Rain = 0
KVA1 121934Z 11005KT 39/06 A3002 RMK A01 T03880058  RH  013%=      5-min Rain = 0
KVA1 121935Z 13008KT 39/06 A3002 RMK A01 T03900057  RH  013%=      5-min Rain = 0
KVA1 121936Z 12010KT 39/05 A3002 RMK A01 T03930050  RH  012%=      5-min Rain = 0
KVA1 121937Z 14010KT 39/05 A3003 RMK A01 T03920051  RH  012%=      5-min Rain = 0
KVA1 121938Z 13007KT 40/05 A3003 RMK A01 T03960047  RH  012%=      5-min Rain = 0
KVA1 121939Z 13005KT 39/05 A3003 RMK A01 T03920051  RH  012%=      5-min Rain = 0
KVA1 121940Z 10004KT 39/06 A3003 RMK A01 T03890057  RH  013%=      5-min Rain = 0
KVA1 121941Z 13004KT 39/06 A3003 RMK A01 T03880056  RH  013%=      5-min Rain = 0
KVA1 121942Z 12002KT 39/06 A3002 RMK A01 T03880056  RH  013%=      5-min Rain = 0
KVA1 121943Z 16002KT 39/06 A3002 RMK A01 T03880056  RH  013%=      5-min Rain = 0
KVA1 121944Z 13002G7KT 39/05 A3002 RMK A01 T03890054  RH  013%=      5-min Rain = 0
KVA1 121945Z 12009KT 39/05 A3002 RMK A01 T03900053  RH  013%=      5-min Rain = 0
KVA1 121946Z 13005KT 39/05 A3002 RMK A01 T03900053  RH  013%=      5-min Rain = 0
KVA1 121947Z 05005KT 39/05 A3002 RMK A01 T03860051  RH  013%=      5-min Rain = 0
KVA1 121948Z 03003KT 38/05 A3002 RMK A01 T03830049  RH  013%=      5-min Rain = 0
KVA1 121949Z 15005KT 38/05 A3002 RMK A01 T03840049  RH  013%=      5-min Rain = 0
KVA1 121950Z 14006KT 39/05 A3002 RMK A01 T03870045  RH  012%=      5-min Rain = 0
KVA1 121951Z 16008KT 39/05 A3002 RMK A01 T03870048  RH  012%=      5-min Rain = 0
KVA1 121952Z 15006KT 39/05 A3002 RMK A01 T03900049  RH  012%=      5-min Rain = 0
KVA1 121953Z 11007KT 39/05 A3002 RMK A01 T03930046  RH  012%=      5-min Rain = 0
KVA1 121954Z 11006KT 40/04 A3002 RMK A01 T03950044  RH  012%=      5-min Rain = 0
KVA1 121955Z 14003KT 40/04 A3002 RMK A01 T03960043  RH  011%=      5-min Rain = 0
KVA1 121956Z 17001KT 40/04 A3002 RMK A01 T03960040  RH  011%=      5-min Rain = 0
KVA1 121957Z 21004KT 40/04 A3002 RMK A01 T03970044  RH  012%=      5-min Rain = 0
KVA1 121958Z 20006KT 40/04 A3002 RMK A01 T03960043  RH  011%=      5-min Rain = 0
KVA1 121959Z 16006KT 40/04 A3002 RMK A01 T03980044  RH  011%=      5-min Rain = 0
KVA1 122000Z 19006KT 40/04 A3002 RMK A01 T03970041  RH  011%=      5-min Rain = 0
KVA1 122001Z 15004KT 39/04 A3002 RMK A01 T03900042  RH  012%=      5-min Rain = 0
KVA1 122002Z 16002KT 39/05 A3002 RMK A01 T03880047  RH  012%=      5-min Rain = 0
KVA1 122003Z 22001KT 39/05 A3002 RMK A01 T03880046  RH  012%=      5-min Rain = 0
KVA1 122004Z 27000KT 39/05 A3002 RMK A01 T03890045  RH  012%=      5-min Rain = 0
KVA1 122005Z 21002KT 39/04 A3002 RMK A01 T03910043  RH  012%=      5-min Rain = 0
KVA1 122006Z 20002KT 39/04 A3002 RMK A01 T03930043  RH  012%=      5-min Rain = 0
KVA1 122007Z 10002KT 40/04 A3002 RMK A01 T03960043  RH  012%=      5-min Rain = 0
KVA1 122008Z 12002KT 40/04 A3002 RMK A01 T03960042  RH  011%=      5-min Rain = 0
KVA1 122009Z 13005KT 40/05 A3001 RMK A01 T03960046  RH  012%=      5-min Rain = 0
KVA1 122010Z 13006KT 40/04 A3001 RMK A01 T04000041  RH  011%=      5-min Rain = 0
KVA1 122011Z 11005KT 40/04 A3001 RMK A01 T03990040  RH  011%=      5-min Rain = 0
KVA1 122012Z 06003KT 40/04 A3001 RMK A01 T03950039  RH  011%=      5-min Rain = 0
KVA1 122013Z 12003KT 39/04 A3001 RMK A01 T03930041  RH  011%=      5-min Rain = 0
KVA1 122014Z 10005KT 39/04 A3001 RMK A01 T03940043  RH  012%=      5-min Rain = 0
KVA1 122015Z 10007KT 40/04 A3001 RMK A01 T03960044  RH  012%=      5-min Rain = 0
KVA1 122016Z 15002KT 39/04 A3001 RMK A01 T03930037  RH  011%=      5-min Rain = 0
KVA1 122017Z 20002KT 39/04 A3001 RMK A01 T03900040  RH  012%=      5-min Rain = 0
KVA1 122018Z 17001KT 39/04 A3001 RMK A01 T03920041  RH  012%=      5-min Rain = 0
KVA1 122019Z 13003KT 39/05 A3001 RMK A01 T03940045  RH  012%=      5-min Rain = 0
KVA1 122020Z 14005KT 40/05 A3001 RMK A01 T03950053  RH  012%=      5-min Rain = 0
KVA1 122021Z 11009KT 40/06 A3001 RMK A01 T03980056  RH  012%=      5-min Rain = 0
KVA1 122022Z 09009KT 40/06 A3001 RMK A01 T04010058  RH  012%=      5-min Rain = 0
KVA1 122023Z 10008KT 40/06 A3001 RMK A01 T04010057  RH  012%=      5-min Rain = 0
KVA1 122024Z 10009KT 40/06 A3001 RMK A01 T04020056  RH  012%=      5-min Rain = 0
KVA1 122025Z 11010KT 40/06 A3001 RMK A01 T03990056  RH  012%=      5-min Rain = 0
KVA1 122026Z 11009KT 40/05 A3001 RMK A01 T03980054  RH  012%=      5-min Rain = 0
KVA1 122027Z 11006KT 40/05 A3001 RMK A01 T03950053  RH  012%=      5-min Rain = 0
KVA1 122028Z 12007KT 39/06 A3001 RMK A01 T03940056  RH  013%=      5-min Rain = 0
KVA1 122029Z 14006KT 40/06 A3001 RMK A01 T03950057  RH  013%=      5-min Rain = 0
KVA1 122030Z 14007KT 40/06 A3001 RMK A01 T03980056  RH  013%=      5-min Rain = 0
KVA1 122031Z 14009KT 40/05 A3001 RMK A01 T04010054  RH  012%=      5-min Rain = 0
KVA1 122032Z 16006KT 40/05 A3001 RMK A01 T04010051  RH  012%=      5-min Rain = 0
KVA1 122033Z 15004KT 40/05 A3001 RMK A01 T03980050  RH  012%=      5-min Rain = 0
KVA1 122034Z 14001KT 40/05 A30 RMK A01 T03950050  RH  012%=      5-min Rain = 0
KVA1 122035Z 16003KT 39/05 A30 RMK A01 T03930051  RH  012%=      5-min Rain = 0
KVA1 122036Z 17006KT 39/05 A30 RMK A01 T03930053  RH  013%=      5-min Rain = 0
KVA1 122037Z 20003KT 40/05 A30 RMK A01 T03970053  RH  012%=      5-min Rain = 0
KVA1 122038Z 24002KT 40/05 A30 RMK A01 T03980048  RH  012%=      5-min Rain = 0
KVA1 122039Z 21002KT 40/05 A30 RMK A01 T03970048  RH  012%=      5-min Rain = 0
KVA1 122040Z 19001KT 40/05 A30 RMK A01 T03950048  RH  012%=      5-min Rain = 0
KVA1 122041Z 29001KT 40/05 A30 RMK A01 T03950050  RH  012%=      5-min Rain = 0
KVA1 122042Z 11001KT 40/05 A30 RMK A01 T03990054  RH  012%=      5-min Rain = 0
KVA1 122043Z 34002KT 40/05 A30 RMK A01 T04030053  RH  012%=      5-min Rain = 0
KVA1 122044Z 00004KT 41/05 A30 RMK A01 T04060054  RH  012%=      5-min Rain = 0
KVA1 122045Z 03002KT 41/05 A30 RMK A01 T04080052  RH  012%=      5-min Rain = 0
KVA1 122046Z 11002KT 41/05 A30 RMK A01 T04050053  RH  012%=      5-min Rain = 0
KVA1 122047Z 09000KT 40/05 A30 RMK A01 T04030053  RH  012%=      5-min Rain = 0
KVA1 122048Z 08003KT 40/06 A30 RMK A01 T04030055  RH  012%=      5-min Rain = 0
KVA1 122049Z 11005KT 41/05 A30 RMK A01 T04050054  RH  012%=      5-min Rain = 0
KVA1 122050Z 14010KT 41/05 A30 RMK A01 T04050052  RH  012%=      5-min Rain = 0
KVA1 122051Z 16012KT 40/05 A30 RMK A01 T04040054  RH  012%=      5-min Rain = 0
KVA1 122052Z 16008KT 40/05 A30 RMK A01 T04030052  RH  012%=      5-min Rain = 0
KVA1 122053Z 16007KT 40/05 A30 RMK A01 T04010054  RH  012%=      5-min Rain = 0
KVA1 122054Z 15009KT 40/05 A30 RMK A01 T04010054  RH  012%=      5-min Rain = 0
KVA1 122055Z 14009KT 40/06 A30 RMK A01 T04030056  RH  012%=      5-min Rain = 0
KVA1 122056Z 13008KT 40/06 A30 RMK A01 T04040058  RH  012%=      5-min Rain = 0
KVA1 122057Z 11008KT 40/06 A30 RMK A01 T04030058  RH  012%=      5-min Rain = 0
KVA1 122058Z 07006KT 40/06 A30 RMK A01 T04000057  RH  012%=      5-min Rain = 0
KVA1 122059Z 09006KT 40/06 A30 RMK A01 T03970057  RH  013%=      5-min Rain = 0
KVA1 122100Z 10010KT 40/06 A30 RMK A01 T03970061  RH  013%=      5-min Rain = 0
KVA1 122101Z 09011KT 40/06 A2999 RMK A01 T04000059  RH  013%=      5-min Rain = 0
KVA1 122102Z 11009KT 40/06 A30 RMK A01 T03990058  RH  013%=      5-min Rain = 0
KVA1 122103Z 09009KT 40/06 A2999 RMK A01 T03990058  RH  013%=      5-min Rain = 0
KVA1 122104Z 10011KT 40/06 A30 RMK A01 T04020059  RH  012%=      5-min Rain = 0
KVA1 122105Z 10005KT 40/06 A30 RMK A01 T03980055  RH  012%=      5-min Rain = 0
KVA1 122106Z 14005KT 40/06 A30 RMK A01 T03960056  RH  013%=      5-min Rain = 0
KVA1 122107Z 14008KT 40/06 A30 RMK A01 T03970055  RH  012%=      5-min Rain = 0
KVA1 122108Z 13009KT 40/06 A30 RMK A01 T03990057  RH  012%=      5-min Rain = 0
KVA1 122109Z 16006KT 40/05 A2999 RMK A01 T04000053  RH  012%=      5-min Rain = 0
KVA1 122110Z 13005KT 40/06 A2999 RMK A01 T03980055  RH  012%=      5-min Rain = 0
KVA1 122111Z 10006KT 40/05 A2999 RMK A01 T03980052  RH  012%=      5-min Rain = 0
KVA1 122112Z 05005KT 40/05 A2999 RMK A01 T03990051  RH  012%=      5-min Rain = 0
KVA1 122113Z 06004KT 40/05 A2999 RMK A01 T03970048  RH  012%=      5-min Rain = 0
KVA1 122114Z 02002KT 40/05 A2999 RMK A01 T03950047  RH  012%=      5-min Rain = 0
KVA1 122115Z 05006KT 40/05 A2999 RMK A01 T03950047  RH  012%=      5-min Rain = 0
KVA1 122116Z 07008KT 40/05 A2999 RMK A01 T03980050  RH  012%=      5-min Rain = 0
KVA1 122117Z 06007KT 40/05 A2999 RMK A01 T03990051  RH  012%=      5-min Rain = 0
KVA1 122118Z 05007KT 40/05 A2999 RMK A01 T04000050  RH  012%=      5-min Rain = 0
KVA1 122119Z 04007KT 40/05 A2999 RMK A01 T04000049  RH  012%=      5-min Rain = 0
KVA1 122120Z 04010KT 40/05 A2999 RMK A01 T04000048  RH  012%=      5-min Rain = 0
KVA1 122121Z 03008KT 40/05 A2999 RMK A01 T04000048  RH  012%=      5-min Rain = 0
KVA1 122122Z 34007KT 40/05 A2999 RMK A01 T03980047  RH  012%=      5-min Rain = 0
KVA1 122123Z 32006KT 39/05 A2999 RMK A01 T03920045  RH  012%=      5-min Rain = 0
KVA1 122124Z 03003KT 39/05 A2999 RMK A01 T03920047  RH  012%=      5-min Rain = 0
KVA1 122125Z 04004KT 40/05 A2999 RMK A01 T03950048  RH  012%=      5-min Rain = 0
KVA1 122126Z 03004KT 40/05 A2999 RMK A01 T03950049  RH  012%=      5-min Rain = 0
KVA1 122127Z 01002KT 39/05 A2999 RMK A01 T03940049  RH  012%=      5-min Rain = 0
KVA1 122128Z 05006KT 40/05 A2999 RMK A01 T03950051  RH  012%=      5-min Rain = 0
KVA1 122129Z 03004KT 40/05 A2999 RMK A01 T03990051  RH  012%=      5-min Rain = 0
KVA1 122130Z 03005KT 40/05 A2999 RMK A01 T03990051  RH  012%=      5-min Rain = 0
KVA1 122131Z 05004KT 40/05 A2999 RMK A01 T03990051  RH  012%=      5-min Rain = 0
KVA1 122132Z 06003KT 40/05 A2999 RMK A01 T03980051  RH  012%=      5-min Rain = 0
KVA1 122133Z 34003KT 40/05 A2998 RMK A01 T03960050  RH  012%=      5-min Rain = 0
KVA1 122134Z 00003KT 39/05 A2998 RMK A01 T03940050  RH  012%=      5-min Rain = 0
KVA1 122135Z 02004KT 40/05 A2998 RMK A01 T03960051  RH  012%=      5-min Rain = 0
KVA1 122136Z 04006KT 40/05 A2998 RMK A01 T03990051  RH  012%=      5-min Rain = 0
KVA1 122137Z 36004KT 40/05 A2998 RMK A01 T04000051  RH  012%=      5-min Rain = 0
KVA1 122138Z 32004KT 40/05 A2998 RMK A01 T03990051  RH  012%=      5-min Rain = 0
KVA1 122139Z 34004KT 40/05 A2998 RMK A01 T03980049  RH  012%=      5-min Rain = 0
KVA1 122140Z 03003KT 40/05 A2998 RMK A01 T03960050  RH  012%=      5-min Rain = 0
KVA1 122141Z 06004KT 40/05 A2998 RMK A01 T03980051  RH  012%=      5-min Rain = 0
KVA1 122142Z 04004KT 40/05 A2998 RMK A01 T03990052  RH  012%=      5-min Rain = 0
KVA1 122143Z 01004KT 40/06 A2998 RMK A01 T04030055  RH  012%=      5-min Rain = 0
KVA1 122144Z 01010KT 41/05 A2998 RMK A01 T04060053  RH  012%=      5-min Rain = 0
KVA1 122145Z 02010KT 41/05 A2998 RMK A01 T04060052  RH  012%=      5-min Rain = 0
KVA1 122146Z 35007KT 41/05 A2998 RMK A01 T04050052  RH  012%=      5-min Rain = 0
KVA1 122147Z 35007KT 40/05 A2998 RMK A01 T04030052  RH  012%=      5-min Rain = 0
KVA1 122148Z 01006KT 40/05 A2998 RMK A01 T04000050  RH  012%=      5-min Rain = 0
KVA1 122149Z 01007KT 40/05 A2998 RMK A01 T03990052  RH  012%=      5-min Rain = 0
KVA1 122150Z 02007KT 40/05 A2998 RMK A01 T04000052  RH  012%=      5-min Rain = 0
KVA1 122151Z 02007KT 40/05 A2998 RMK A01 T03990052  RH  012%=      5-min Rain = 0
KVA1 122152Z 02008KT 40/05 A2998 RMK A01 T03960051  RH  012%=      5-min Rain = 0
KVA1 122153Z 06005KT 39/05 A2998 RMK A01 T03940051  RH  012%=      5-min Rain = 0
KVA1 122154Z 11005KT 40/05 A2998 RMK A01 T03950053  RH  012%=      5-min Rain = 0
KVA1 122155Z 11006KT 40/05 A2998 RMK A01 T03960046  RH  012%=      5-min Rain = 0
KVA1 122156Z 11004KT 39/04 A2998 RMK A01 T03940044  RH  012%=      5-min Rain = 0
KVA1 122157Z 12004KT 39/05 A2998 RMK A01 T03920045  RH  012%=      5-min Rain = 0
KVA1 122158Z 14002KT 39/04 A2998 RMK A01 T03900044  RH  012%=      5-min Rain = 0
KVA1 122159Z 13003KT 39/04 A2998 RMK A01 T03870043  RH  012%=      5-min Rain = 0
KVA1 122200Z 13007KT 39/05 A2998 RMK A01 T03870046  RH  012%=      5-min Rain = 0
KVA1 122201Z 17006KT 39/05 A2998 RMK A01 T03870046  RH  012%=      5-min Rain = 0
KVA1 122202Z 12005KT 39/05 A2998 RMK A01 T03870047  RH  012%=      5-min Rain = 0
KVA1 122203Z 13006KT 39/05 A2998 RMK A01 T03880048  RH  012%=      5-min Rain = 0
KVA1 122204Z 12006KT 39/05 A2998 RMK A01 T03880047  RH  012%=      5-min Rain = 0
KVA1 122205Z 12006KT 39/05 A2998 RMK A01 T03880047  RH  012%=      5-min Rain = 0
KVA1 122206Z 12006KT 39/05 A2998 RMK A01 T03880048  RH  012%=      5-min Rain = 0
KVA1 122207Z 11007KT 39/05 A2998 RMK A01 T03860049  RH  013%=      5-min Rain = 0
KVA1 122208Z 11007KT 39/05 A2998 RMK A01 T03860048  RH  013%=      5-min Rain = 0
KVA1 122209Z 11005KT 39/05 A2998 RMK A01 T03860049  RH  013%=      5-min Rain = 0
KVA1 122210Z 13006KT 39/05 A2998 RMK A01 T03860050  RH  013%=      5-min Rain = 0
KVA1 122211Z 12004KT 39/05 A2998 RMK A01 T03870049  RH  013%=      5-min Rain = 0
KVA1 122212Z 12003KT 39/05 A2998 RMK A01 T03900050  RH  012%=      5-min Rain = 0
KVA1 122213Z 11007KT 39/05 A2998 RMK A01 T03920050  RH  012%=      5-min Rain = 0
KVA1 122214Z 12007KT 39/05 A2998 RMK A01 T03940050  RH  012%=      5-min Rain = 0
KVA1 122215Z 11005KT 40/05 A2998 RMK A01 T03960051  RH  012%=      5-min Rain = 0
KVA1 122216Z 09005KT 40/05 A2998 RMK A01 T03960051  RH  012%=      5-min Rain = 0
KVA1 122217Z 09004KT 39/05 A2998 RMK A01 T03940050  RH  012%=      5-min Rain = 0
KVA1 122218Z 11005KT 39/05 A2998 RMK A01 T03940051  RH  012%=      5-min Rain = 0
KVA1 122219Z 11004KT 39/05 A2998 RMK A01 T03940051  RH  012%=      5-min Rain = 0
KVA1 122220Z 08002KT 39/05 A2998 RMK A01 T03930049  RH  012%=      5-min Rain = 0
KVA1 122221Z 10001KT 39/05 A2998 RMK A01 T03930048  RH  012%=      5-min Rain = 0
KVA1 122222Z 08004KT 39/05 A2997 RMK A01 T03930050  RH  012%=      5-min Rain = 0
KVA1 122223Z 04005KT 39/05 A2997 RMK A01 T03940050  RH  012%=      5-min Rain = 0
KVA1 122224Z 07003KT 40/05 A2997 RMK A01 T03950049  RH  012%=      5-min Rain = 0
KVA1 122225Z 06002KT 40/05 A2998 RMK A01 T03970049  RH  012%=      5-min Rain = 0
KVA1 122226Z 01005KT 40/05 A2997 RMK A01 T03980048  RH  012%=      5-min Rain = 0
KVA1 122227Z 04004KT 40/05 A2997 RMK A01 T04010050  RH  012%=      5-min Rain = 0
KVA1 122228Z 05005KT 40/05 A2997 RMK A01 T04040050  RH  012%=      5-min Rain = 0
KVA1 122229Z 06004KT 40/05 A2997 RMK A01 T04020048  RH  012%=      5-min Rain = 0
KVA1 122230Z 03003KT 40/05 A2997 RMK A01 T03980049  RH  012%=      5-min Rain = 0
KVA1 122231Z 04005KT 40/05 A2997 RMK A01 T03970049  RH  012%=      5-min Rain = 0
KVA1 122232Z 08005KT 40/05 A2997 RMK A01 T03960050  RH  012%=      5-min Rain = 0
KVA1 122233Z 11007KT 40/05 A2997 RMK A01 T03950052  RH  012%=      5-min Rain = 0
KVA1 122234Z 10003KT 39/05 A2997 RMK A01 T03920052  RH  013%=      5-min Rain = 0
KVA1 122235Z 10003KT 39/05 A2997 RMK A01 T03910054  RH  013%=      5-min Rain = 0
KVA1 122236Z 11004KT 39/06 A2997 RMK A01 T03910056  RH  013%=      5-min Rain = 0
KVA1 122237Z 12005KT 39/05 A2997 RMK A01 T03900054  RH  013%=      5-min Rain = 0
KVA1 122238Z 12007KT 39/05 A2997 RMK A01 T03910054  RH  013%=      5-min Rain = 0
KVA1 122239Z 12008KT 39/06 A2997 RMK A01 T03930056  RH  013%=      5-min Rain = 0
KVA1 122240Z 12007KT 40/06 A2997 RMK A01 T03950055  RH  013%=      5-min Rain = 0
KVA1 122241Z 11007KT 40/06 A2997 RMK A01 T03970055  RH  012%=      5-min Rain = 0
KVA1 122242Z 10006KT 40/06 A2997 RMK A01 T03960055  RH  013%=      5-min Rain = 0
KVA1 122243Z 11007KT 40/06 A2997 RMK A01 T03950056  RH  013%=      5-min Rain = 0
KVA1 122244Z 10007KT 40/06 A2997 RMK A01 T03960056  RH  013%=      5-min Rain = 0
KVA1 122245Z 09006KT 40/06 A2997 RMK A01 T03970059  RH  013%=      5-min Rain = 0
KVA1 122246Z 07007KT 40/06 A2997 RMK A01 T03980059  RH  013%=      5-min Rain = 0
KVA1 122247Z 08006KT 40/06 A2997 RMK A01 T03990057  RH  012%=      5-min Rain = 0
KVA1 122248Z 12009KT 40/06 A2997 RMK A01 T04010058  RH  012%=      5-min Rain = 0
KVA1 122249Z 12007KT 40/06 A2997 RMK A01 T04010058  RH  012%=      5-min Rain = 0
KVA1 122250Z 09007KT 40/06 A2997 RMK A01 T04020058  RH  012%=      5-min Rain = 0
KVA1 122251Z 07008KT 40/06 A2997 RMK A01 T04020056  RH  012%=      5-min Rain = 0
KVA1 122252Z 07009KT 40/05 A2997 RMK A01 T04000054  RH  012%=      5-min Rain = 0
KVA1 122253Z 08010KT 40/06 A2997 RMK A01 T03980055  RH  012%=      5-min Rain = 0
KVA1 122254Z 09012KT 40/05 A2997 RMK A01 T03950054  RH  012%=      5-min Rain = 0
KVA1 122255Z 09011KT 39/05 A2997 RMK A01 T03920054  RH  013%=      5-min Rain = 0
KVA1 122256Z 10011KT 39/05 A2997 RMK A01 T03910054  RH  013%=      5-min Rain = 0
KVA1 122257Z 10010KT 39/05 A2997 RMK A01 T03890053  RH  013%=      5-min Rain = 0
KVA1 122258Z 11009KT 39/05 A2997 RMK A01 T03880052  RH  013%=      5-min Rain = 0
KVA1 122259Z 10007KT 39/05 A2997 RMK A01 T03880051  RH  013%=      5-min Rain = 0
KVA1 122300Z 09007KT 39/05 A2997 RMK A01 T03890053  RH  013%=      5-min Rain = 0
KVA1 122301Z 09007KT 39/05 A2997 RMK A01 T03890054  RH  013%=      5-min Rain = 0
KVA1 122302Z 09007KT 39/05 A2997 RMK A01 T03890052  RH  013%=      5-min Rain = 0
KVA1 122303Z 11006KT 39/05 A2997 RMK A01 T03870052  RH  013%=      5-min Rain = 0
KVA1 122304Z 11007KT 39/05 A2997 RMK A01 T03860051  RH  013%=      5-min Rain = 0
KVA1 122305Z 13006KT 39/05 A2997 RMK A01 T03860051  RH  013%=      5-min Rain = 0
KVA1 122306Z 15005KT 39/05 A2997 RMK A01 T03860052  RH  013%=      5-min Rain = 0
KVA1 122307Z 14003KT 39/05 A2997 RMK A01 T03860051  RH  013%=      5-min Rain = 0
KVA1 122308Z 12003KT 39/05 A2997 RMK A01 T03850052  RH  013%=      5-min Rain = 0
KVA1 122309Z 07004KT 39/05 A2997 RMK A01 T03860053  RH  013%=      5-min Rain = 0
KVA1 122310Z 06002KT 39/05 A2997 RMK A01 T03850052  RH  013%=      5-min Rain = 0
KVA1 122311Z 05003KT 39/05 A2997 RMK A01 T03850051  RH  013%=      5-min Rain = 0
KVA1 122312Z 07002KT 38/05 A2997 RMK A01 T03840050  RH  013%=      5-min Rain = 0
KVA1 122313Z 08001KT 39/05 A2997 RMK A01 T03850051  RH  013%=      5-min Rain = 0
KVA1 122314Z 08002KT 38/05 A2997 RMK A01 T03840050  RH  013%=      5-min Rain = 0
KVA1 122315Z 08002KT 39/06 A2997 RMK A01 T03860057  RH  013%=      5-min Rain = 0
KVA1 122316Z 08001KT 39/05 A2997 RMK A01 T03880054  RH  013%=      5-min Rain = 0
KVA1 122317Z 10000KT 39/05 A2997 RMK A01 T03890053  RH  013%=      5-min Rain = 0
KVA1 122318Z 01001KT 39/05 A2997 RMK A01 T03910052  RH  013%=      5-min Rain = 0
KVA1 122319Z 03002KT 40/05 A2997 RMK A01 T03950053  RH  012%=      5-min Rain = 0
KVA1 122320Z 04003KT 40/05 A2997 RMK A01 T03980053  RH  012%=      5-min Rain = 0
KVA1 122321Z 04005KT 40/05 A2997 RMK A01 T03990053  RH  012%=      5-min Rain = 0
KVA1 122322Z 05004KT 40/05 A2997 RMK A01 T03990052  RH  012%=      5-min Rain = 0
KVA1 122323Z 04005KT 40/05 A2997 RMK A01 T03960052  RH  012%=      5-min Rain = 0
KVA1 122324Z 04008KT 40/05 A2997 RMK A01 T03950052  RH  012%=      5-min Rain = 0
KVA1 122325Z 04008KT 40/05 A2997 RMK A01 T03960052  RH  012%=      5-min Rain = 0
KVA1 122326Z 06007KT 40/05 A2997 RMK A01 T03960051  RH  012%=      5-min Rain = 0
KVA1 122327Z 07007KT 40/05 A2997 RMK A01 T03950052  RH  012%=      5-min Rain = 0
KVA1 122328Z 07007KT 40/05 A2997 RMK A01 T03950054  RH  013%=      5-min Rain = 0
KVA1 122329Z 07007KT 40/05 A2997 RMK A01 T03950053  RH  012%=      5-min Rain = 0
KVA1 122330Z 06006KT 39/05 A2997 RMK A01 T03940054  RH  013%=      5-min Rain = 0
KVA1 122331Z 07005KT 40/06 A2997 RMK A01 T03960055  RH  012%=      5-min Rain = 0
KVA1 122332Z 07006KT 40/05 A2997 RMK A01 T03960052  RH  012%=      5-min Rain = 0
KVA1 122333Z 07008KT 40/05 A2997 RMK A01 T03980053  RH  012%=      5-min Rain = 0
KVA1 122334Z 07007KT 40/05 A2996 RMK A01 T03990048  RH  012%=      5-min Rain = 0
KVA1 122335Z 10007KT 40/05 A2996 RMK A01 T03980052  RH  012%=      5-min Rain = 0
KVA1 122336Z 09005G10KT 40/05 A2996 RMK A01 T04000051  RH  012%=      5-min Rain = 0
KVA1 122337Z 09008KT 40/05 A2996 RMK A01 T04010050  RH  012%=      5-min Rain = 0
KVA1 122338Z 10006KT 40/05 A2996 RMK A01 T03980050  RH  012%=      5-min Rain = 0
KVA1 122339Z 11009KT 40/05 A2996 RMK A01 T03980049  RH  012%=      5-min Rain = 0
KVA1 122340Z 12010KT 40/05 A2996 RMK A01 T04000047  RH  012%=      5-min Rain = 0
KVA1 122341Z 12008KT 40/05 A2996 RMK A01 T04000048  RH  012%=      5-min Rain = 0
KVA1 122342Z 11008KT 40/05 A2996 RMK A01 T03990047  RH  012%=      5-min Rain = 0
KVA1 122343Z 11005KT 40/05 A2996 RMK A01 T03990047  RH  012%=      5-min Rain = 0
KVA1 122344Z 09007KT 40/05 A2996 RMK A01 T04000048  RH  012%=      5-min Rain = 0
KVA1 122345Z 10007KT 40/05 A2996 RMK A01 T03980048  RH  012%=      5-min Rain = 0
KVA1 122346Z 12005KT 40/04 A2996 RMK A01 T03960044  RH  012%=      5-min Rain = 0
KVA1 122347Z 12007KT 40/05 A2996 RMK A01 T03950045  RH  012%=      5-min Rain = 0
KVA1 122348Z 10006KT 40/05 A2996 RMK A01 T03970045  RH  012%=      5-min Rain = 0
KVA1 122349Z 09006KT 40/04 A2996 RMK A01 T03970044  RH  012%=      5-min Rain = 0
KVA1 122350Z 09005KT 40/05 A2996 RMK A01 T03950046  RH  012%=      5-min Rain = 0
KVA1 122351Z 06005KT 40/05 A2996 RMK A01 T03950045  RH  012%=      5-min Rain = 0
KVA1 122352Z 04008KT 40/04 A2996 RMK A01 T03950044  RH  012%=      5-min Rain = 0
KVA1 122353Z 04010KT 40/04 A2996 RMK A01 T03960042  RH  011%=      5-min Rain = 0
KVA1 122354Z 05008KT 40/04 A2996 RMK A01 T03960040  RH  011%=      5-min Rain = 0
KVA1 122355Z 08007KT 40/04 A2996 RMK A01 T03960042  RH  011%=      5-min Rain = 0
KVA1 122356Z 09004KT 39/04 A2996 RMK A01 T03940041  RH  011%=      5-min Rain = 0
KVA1 122357Z 04004KT 39/04 A2996 RMK A01 T03930040  RH  011%=      5-min Rain = 0
KVA1 122358Z 05008KT 39/04 A2996 RMK A01 T03930040  RH  011%=      5-min Rain = 0
KVA1 122359Z 04006KT 39/04 A2996 RMK A01 T03940040  RH  011%=      5-min Rain = 0
KVA1 130000Z 03007KT 40/04 A2996 RMK A01 T03960041  RH  011%=      5-min Rain = 0
KVA1 130001Z 04009KT 40/04 A2996 RMK A01 T03970039  RH  011%=      5-min Rain = 0
KVA1 130002Z 05008KT 40/04 A2996 RMK A01 T03970037  RH  011%=      5-min Rain = 0
KVA1 130003Z 04007KT 40/04 A2996 RMK A01 T03970036  RH  011%=      5-min Rain = 0
KVA1 130004Z 05007KT 40/04 A2996 RMK A01 T03970036  RH  011%=      5-min Rain = 0
KVA1 130005Z 07007KT 40/04 A2996 RMK A01 T03970035  RH  011%=      5-min Rain = 0
KVA1 130006Z 07006KT 40/04 A2996 RMK A01 T03960037  RH  011%=      5-min Rain = 0
KVA1 130007Z 07004KT 40/04 A2996 RMK A01 T03950040  RH  011%=      5-min Rain = 0
KVA1 130008Z 03006KT 39/04 A2996 RMK A01 T03930037  RH  011%=      5-min Rain = 0
KVA1 130009Z 02007KT 40/04 A2996 RMK A01 T03950037  RH  011%=      5-min Rain = 0
KVA1 130010Z 00005KT 40/04 A2996 RMK A01 T03950035  RH  011%=      5-min Rain = 0
KVA1 130011Z 03008KT 40/04 A2996 RMK A01 T03960036  RH  011%=      5-min Rain = 0
KVA1 130012Z 07007KT 40/04 A2996 RMK A01 T03970036  RH  011%=      5-min Rain = 0
KVA1 130013Z 07006KT 40/04 A2996 RMK A01 T03980040  RH  011%=      5-min Rain = 0
KVA1 130014Z 06005KT 40/04 A2996 RMK A01 T03980038  RH  011%=      5-min Rain = 0
KVA1 130015Z 10003KT 40/04 A2996 RMK A01 T03970040  RH  011%=      5-min Rain = 0
KVA1 130016Z 08003KT 40/04 A2996 RMK A01 T03970042  RH  011%=      5-min Rain = 0
KVA1 130017Z 12004KT 40/04 A2996 RMK A01 T03950041  RH  011%=      5-min Rain = 0
KVA1 130018Z 13005KT 39/04 A2996 RMK A01 T03940040  RH  011%=      5-min Rain = 0
KVA1 130019Z 13005KT 40/04 A2996 RMK A01 T03960039  RH  011%=      5-min Rain = 0
KVA1 130020Z 04003KT 40/04 A2996 RMK A01 T03960038  RH  011%=      5-min Rain = 0
KVA1 130021Z 01001KT 40/04 A2996 RMK A01 T03960035  RH  011%=      5-min Rain = 0
KVA1 130022Z 06000KT 40/03 A2996 RMK A01 T03950034  RH  011%=      5-min Rain = 0
KVA1 130023Z 07003KT 40/04 A2996 RMK A01 T03950036  RH  011%=      5-min Rain = 0
KVA1 130024Z 06005KT 40/04 A2996 RMK A01 T03950039  RH  011%=      5-min Rain = 0
KVA1 130025Z 10006KT 40/04 A2996 RMK A01 T03950042  RH  011%=      5-min Rain = 0
KVA1 130026Z 06008KT 39/04 A2996 RMK A01 T03940041  RH  011%=      5-min Rain = 0
KVA1 130027Z 09009KT 39/04 A2996 RMK A01 T03940039  RH  011%=      5-min Rain = 0
KVA1 130028Z 11011KT 40/04 A2996 RMK A01 T03950038  RH  011%=      5-min Rain = 0
KVA1 130029Z 11008KT 39/04 A2996 RMK A01 T03940035  RH  011%=      5-min Rain = 0
KVA1 130030Z 08007KT 39/04 A2996 RMK A01 T03930038  RH  011%=      5-min Rain = 0
KVA1 130031Z 07005KT 39/04 A2996 RMK A01 T03930036  RH  011%=      5-min Rain = 0
KVA1 130032Z 08003KT 39/03 A2996 RMK A01 T03920033  RH  011%=      5-min Rain = 0
KVA1 130033Z 08004KT 39/04 A2996 RMK A01 T03910039  RH  011%=      5-min Rain = 0
KVA1 130034Z 08003KT 39/04 A2996 RMK A01 T03900037  RH  011%=      5-min Rain = 0
KVA1 130035Z 08005KT 39/04 A2996 RMK A01 T03890039  RH  012%=      5-min Rain = 0
KVA1 130036Z 06005KT 39/04 A2996 RMK A01 T03900036  RH  011%=      5-min Rain = 0
KVA1 130037Z 06006KT 39/03 A2996 RMK A01 T03910034  RH  011%=      5-min Rain = 0
KVA1 130038Z 06005KT 39/03 A2996 RMK A01 T03920034  RH  011%=      5-min Rain = 0
KVA1 130039Z 04005KT 39/03 A2996 RMK A01 T03920034  RH  011%=      5-min Rain = 0
KVA1 130040Z 06004KT 39/03 A2996 RMK A01 T03920032  RH  011%=      5-min Rain = 0
KVA1 130041Z 09004G9KT 39/03 A2996 RMK A01 T03910034  RH  011%=      5-min Rain = 0
KVA1 130042Z 08006KT 39/04 A2996 RMK A01 T03890036  RH  011%=      5-min Rain = 0
KVA1 130043Z 10009KT 39/04 A2996 RMK A01 T03880038  RH  012%=      5-min Rain = 0
KVA1 130044Z 11009KT 39/04 A2997 RMK A01 T03870035  RH  011%=      5-min Rain = 0
KVA1 130045Z 11008KT 39/03 A2997 RMK A01 T03860033  RH  011%=      5-min Rain = 0
KVA1 130046Z 12007KT 39/03 A2997 RMK A01 T03850032  RH  011%=      5-min Rain = 0
KVA1 130047Z 10005KT 39/03 A2997 RMK A01 T03850032  RH  011%=      5-min Rain = 0
KVA1 130048Z 11008KT 38/03 A2997 RMK A01 T03840032  RH  011%=      5-min Rain = 0
KVA1 130049Z 09009KT 38/03 A2997 RMK A01 T03840033  RH  011%=      5-min Rain = 0
KVA1 130050Z 09008KT 38/03 A2997 RMK A01 T03840033  RH  011%=      5-min Rain = 0
KVA1 130051Z 07006KT 38/03 A2997 RMK A01 T03830033  RH  011%=      5-min Rain = 0
KVA1 130052Z 08005KT 38/04 A2997 RMK A01 T03820035  RH  012%=      5-min Rain = 0
KVA1 130053Z 09006G11KT 38/03 A2997 RMK A01 T03820034  RH  012%=      5-min Rain = 0
KVA1 130054Z 09010KT 38/03 A2997 RMK A01 T03820034  RH  012%=      5-min Rain = 0
KVA1 130055Z 10010KT 38/03 A2997 RMK A01 T03830032  RH  011%=      5-min Rain = 0
KVA1 130056Z 09009KT 38/03 A2997 RMK A01 T03840032  RH  011%=      5-min Rain = 0
KVA1 130057Z 09008KT 38/03 A2997 RMK A01 T03840033  RH  011%=      5-min Rain = 0
KVA1 130058Z 10009KT 38/03 A2997 RMK A01 T03840034  RH  011%=      5-min Rain = 0
KVA1 130059Z 08009KT 38/03 A2997 RMK A01 T03840033  RH  011%=      5-min Rain = 0
KVA1 130100Z 08011KT 38/03 A2997 RMK A01 T03840033  RH  011%=      5-min Rain = 0
KVA1 130101Z 08012KT 38/03 A2997 RMK A01 T03840031  RH  011%=      5-min Rain = 0
KVA1 130102Z 08011KT 38/03 A2997 RMK A01 T03830031  RH  011%=      5-min Rain = 0
KVA1 130103Z 09010KT 38/03 A2997 RMK A01 T03830032  RH  011%=      5-min Rain = 0
KVA1 130104Z 08009KT 38/03 A2997 RMK A01 T03830033  RH  012%=      5-min Rain = 0
KVA1 130105Z 08009KT 38/03 A2997 RMK A01 T03830033  RH  011%=      5-min Rain = 0
KVA1 130106Z 07011KT 38/03 A2997 RMK A01 T03830033  RH  012%=      5-min Rain = 0
KVA1 130107Z 09011KT 38/03 A2997 RMK A01 T03830034  RH  012%=      5-min Rain = 0
KVA1 130108Z 10011KT 38/03 A2997 RMK A01 T03820034  RH  012%=      5-min Rain = 0
KVA1 130109Z 09010KT 38/03 A2997 RMK A01 T03820034  RH  012%=      5-min Rain = 0
KVA1 130110Z 09009KT 38/04 A2997 RMK A01 T03810036  RH  012%=      5-min Rain = 0
KVA1 130111Z 09010KT 38/04 A2997 RMK A01 T03810036  RH  012%=      5-min Rain = 0
KVA1 130112Z 09010KT 38/04 A2997 RMK A01 T03810037  RH  012%=      5-min Rain = 0
KVA1 130113Z 09014KT 38/04 A2997 RMK A01 T03800035  RH  012%=      5-min Rain = 0
KVA1 130114Z 09013KT 38/03 A2997 RMK A01 T03790034  RH  012%=      5-min Rain = 0
KVA1 130115Z 09011KT 38/03 A2997 RMK A01 T03780034  RH  012%=      5-min Rain = 0
KVA1 130116Z 09011KT 38/03 A2997 RMK A01 T03770033  RH  012%=      5-min Rain = 0
KVA1 130117Z 09009KT 38/04 A2997 RMK A01 T03770035  RH  012%=      5-min Rain = 0
KVA1 130118Z 10009KT 38/04 A2997 RMK A01 T03760035  RH  012%=      5-min Rain = 0
KVA1 130119Z 10012KT 38/04 A2997 RMK A01 T03750035  RH  012%=      5-min Rain = 0
KVA1 130120Z 09012KT 38/04 A2997 RMK A01 T03750035  RH  012%=      5-min Rain = 0
KVA1 130121Z 10010KT 37/04 A2997 RMK A01 T03740036  RH  012%=      5-min Rain = 0
KVA1 130122Z 09010KT 37/04 A2997 RMK A01 T03740036  RH  012%=      5-min Rain = 0
KVA1 130123Z 09010KT 37/04 A2997 RMK A01 T03730036  RH  012%=      5-min Rain = 0
KVA1 130124Z 09009KT 37/04 A2997 RMK A01 T03720036  RH  012%=      5-min Rain = 0
KVA1 130125Z 09008KT 37/04 A2997 RMK A01 T03720036  RH  012%=      5-min Rain = 0
KVA1 130126Z 09007KT 37/04 A2997 RMK A01 T03710037  RH  013%=      5-min Rain = 0
KVA1 130127Z 09008KT 37/04 A2997 RMK A01 T03700037  RH  013%=      5-min Rain = 0
KVA1 130128Z 09008KT 37/04 A2997 RMK A01 T03700037  RH  013%=      5-min Rain = 0
KVA1 130129Z 09009KT 37/04 A2997 RMK A01 T03690036  RH  013%=      5-min Rain = 0
KVA1 130130Z 09007KT 37/04 A2998 RMK A01 T03690036  RH  013%=      5-min Rain = 0
KVA1 130131Z 09007KT 37/04 A2998 RMK A01 T03690037  RH  013%=      5-min Rain = 0
KVA1 130132Z 09008KT 37/04 A2998 RMK A01 T03680037  RH  013%=      5-min Rain = 0
KVA1 130133Z 10008KT 37/04 A2998 RMK A01 T03680036  RH  013%=      5-min Rain = 0
KVA1 130134Z 09007KT 37/04 A2998 RMK A01 T03670036  RH  013%=      5-min Rain = 0
KVA1 130135Z 09007KT 37/04 A2998 RMK A01 T03660037  RH  013%=      5-min Rain = 0
KVA1 130136Z 09008KT 37/04 A2998 RMK A01 T03660037  RH  013%=      5-min Rain = 0
KVA1 130137Z 09008KT 37/04 A2998 RMK A01 T03650037  RH  013%=      5-min Rain = 0
KVA1 130138Z 09008KT 37/04 A2998 RMK A01 T03650038  RH  013%=      5-min Rain = 0
KVA1 130139Z 08009KT 36/04 A2998 RMK A01 T03640037  RH  013%=      5-min Rain = 0
KVA1 130140Z 08006KT 36/04 A2998 RMK A01 T03640036  RH  013%=      5-min Rain = 0
KVA1 130141Z 09007KT 36/04 A2998 RMK A01 T03640037  RH  013%=      5-min Rain = 0
KVA1 130142Z 09008KT 36/04 A2998 RMK A01 T03630037  RH  013%=      5-min Rain = 0
KVA1 130143Z 09007KT 36/04 A2998 RMK A01 T03620036  RH  013%=      5-min Rain = 0
KVA1 130144Z 09006KT 36/04 A2998 RMK A01 T03620035  RH  013%=      5-min Rain = 0
KVA1 130145Z 08006KT 36/04 A2998 RMK A01 T03620037  RH  013%=      5-min Rain = 0
KVA1 130146Z 08006KT 36/04 A2998 RMK A01 T03610038  RH  013%=      5-min Rain = 0
KVA1 130147Z 08006KT 36/04 A2998 RMK A01 T03590037  RH  013%=      5-min Rain = 0
KVA1 130148Z 08006KT 36/04 A2998 RMK A01 T03590037  RH  013%=      5-min Rain = 0
KVA1 130149Z 09005KT 36/04 A2998 RMK A01 T03580038  RH  014%=      5-min Rain = 0
KVA1 130150Z 09005KT 36/04 A2998 RMK A01 T03570037  RH  014%=      5-min Rain = 0
KVA1 130151Z 09005KT 36/04 A2998 RMK A01 T03560037  RH  014%=      5-min Rain = 0
KVA1 130152Z 10004KT 36/04 A2998 RMK A01 T03550037  RH  014%=      5-min Rain = 0
KVA1 130153Z 10005KT 35/04 A2998 RMK A01 T03540038  RH  014%=      5-min Rain = 0
KVA1 130154Z 10005KT 35/04 A2998 RMK A01 T03530038  RH  014%=      5-min Rain = 0
KVA1 130155Z 10005KT 35/04 A2998 RMK A01 T03520039  RH  014%=      5-min Rain = 0
KVA1 130156Z 10006KT 35/04 A2998 RMK A01 T03520039  RH  014%=      5-min Rain = 0
KVA1 130157Z 09005KT 35/04 A2998 RMK A01 T03510039  RH  014%=      5-min Rain = 0
KVA1 130158Z 09005KT 35/04 A2998 RMK A01 T03510039  RH  014%=      5-min Rain = 0
KVA1 130159Z 09005KT 35/04 A2998 RMK A01 T03500039  RH  014%=      5-min Rain = 0
KVA1 130200Z 10005KT 35/04 A2998 RMK A01 T03500040  RH  014%=      5-min Rain = 0
KVA1 130201Z 09004KT 35/04 A2998 RMK A01 T03490040  RH  015%=      5-min Rain = 0
KVA1 130202Z 09005KT 35/04 A2998 RMK A01 T03490040  RH  015%=      5-min Rain = 0
KVA1 130203Z 09005KT 35/04 A2998 RMK A01 T03480041  RH  015%=      5-min Rain = 0
KVA1 130204Z 09005KT 35/04 A2998 RMK A01 T03470041  RH  015%=      5-min Rain = 0
KVA1 130205Z 10004KT 35/04 A2998 RMK A01 T03470042  RH  015%=      5-min Rain = 0
KVA1 130206Z 09004KT 35/04 A2998 RMK A01 T03450042  RH  015%=      5-min Rain = 0
KVA1 130207Z 09005KT 34/04 A2998 RMK A01 T03440042  RH  015%=      5-min Rain = 0
KVA1 130208Z 09004KT 34/04 A2998 RMK A01 T03430042  RH  015%=      5-min Rain = 0
KVA1 130209Z 10005KT 34/04 A2998 RMK A01 T03420041  RH  015%=      5-min Rain = 0
KVA1 130210Z 10005KT 34/04 A2998 RMK A01 T03420041  RH  015%=      5-min Rain = 0
KVA1 130211Z 10005KT 34/04 A2998 RMK A01 T03420041  RH  015%=      5-min Rain = 0
KVA1 130212Z 10004KT 34/04 A2999 RMK A01 T03410042  RH  015%=      5-min Rain = 0
KVA1 130213Z 10004KT 34/04 A2999 RMK A01 T03400041  RH  015%=      5-min Rain = 0
KVA1 130214Z 10004KT 34/04 A2999 RMK A01 T03400041  RH  015%=      5-min Rain = 0
KVA1 130215Z 11004KT 34/04 A2999 RMK A01 T03390040  RH  015%=      5-min Rain = 0
KVA1 130216Z 11003KT 34/04 A2999 RMK A01 T03390041  RH  015%=      5-min Rain = 0
KVA1 130217Z 11003KT 34/04 A2999 RMK A01 T03380041  RH  016%=      5-min Rain = 0
KVA1 130218Z 11004KT 34/04 A2999 RMK A01 T03370040  RH  016%=      5-min Rain = 0
KVA1 130219Z 11004KT 34/04 A2999 RMK A01 T03370041  RH  016%=      5-min Rain = 0
KVA1 130220Z 11003KT 34/04 A2999 RMK A01 T03360041  RH  016%=      5-min Rain = 0
KVA1 130221Z 11004KT 34/04 A2999 RMK A01 T03350041  RH  016%=      5-min Rain = 0
KVA1 130222Z 11004KT 33/04 A2999 RMK A01 T03340042  RH  016%=      5-min Rain = 0
KVA1 130223Z 11004KT 33/04 A2999 RMK A01 T03340042  RH  016%=      5-min Rain = 0
KVA1 130224Z 11004KT 33/04 A2999 RMK A01 T03330041  RH  016%=      5-min Rain = 0
KVA1 130225Z 12004KT 33/04 A2999 RMK A01 T03330041  RH  016%=      5-min Rain = 0
KVA1 130226Z 12004KT 33/04 A2999 RMK A01 T03330041  RH  016%=      5-min Rain = 0
KVA1 130227Z 12004KT 33/04 A2999 RMK A01 T03330041  RH  016%=      5-min Rain = 0
KVA1 130228Z 12004KT 33/04 A2999 RMK A01 T03330041  RH  016%=      5-min Rain = 0
KVA1 130229Z 12004KT 33/04 A2999 RMK A01 T03320040  RH  016%=      5-min Rain = 0
KVA1 130230Z 11003KT 33/04 A2999 RMK A01 T03320040  RH  016%=      5-min Rain = 0
KVA1 130231Z 11003KT 33/04 A2999 RMK A01 T03310041  RH  016%=      5-min Rain = 0
KVA1 130232Z 11003KT 33/04 A2999 RMK A01 T03300041  RH  016%=      5-min Rain = 0
KVA1 130233Z 11004KT 33/04 A2999 RMK A01 T03300042  RH  016%=      5-min Rain = 0
KVA1 130234Z 11004KT 33/04 A2999 RMK A01 T03300042  RH  016%=      5-min Rain = 0
KVA1 130235Z 11004KT 33/04 A2999 RMK A01 T03290042  RH  016%=      5-min Rain = 0
KVA1 130236Z 11004KT 33/04 A2999 RMK A01 T03280041  RH  016%=      5-min Rain = 0
KVA1 130237Z 11004KT 33/04 A2999 RMK A01 T03280040  RH  016%=      5-min Rain = 0
KVA1 130238Z 11004KT 33/04 A2999 RMK A01 T03280040  RH  016%=      5-min Rain = 0
KVA1 130239Z 11004KT 33/04 A2999 RMK A01 T03280042  RH  017%=      5-min Rain = 0
KVA1 130240Z 11004KT 33/04 A2999 RMK A01 T03270043  RH  017%=      5-min Rain = 0
KVA1 130241Z 11004KT 33/04 A2999 RMK A01 T03270042  RH  017%=      5-min Rain = 0
KVA1 130242Z 11004KT 33/04 A2999 RMK A01 T03270043  RH  017%=      5-min Rain = 0
KVA1 130243Z 11004KT 33/04 A2999 RMK A01 T03270043  RH  017%=      5-min Rain = 0
KVA1 130244Z 12003KT 33/04 A2999 RMK A01 T03260043  RH  017%=      5-min Rain = 0
KVA1 130245Z 11003KT 33/04 A2999 RMK A01 T03260042  RH  017%=      5-min Rain = 0
KVA1 130246Z 11003KT 33/04 A2999 RMK A01 T03260043  RH  017%=      5-min Rain = 0
KVA1 130247Z 11003KT 33/04 A2999 RMK A01 T03250042  RH  017%=      5-min Rain = 0
KVA1 130248Z 11003KT 32/04 A2999 RMK A01 T03240040  RH  017%=      5-min Rain = 0
KVA1 130249Z 11003KT 32/04 A30 RMK A01 T03230040  RH  017%=      5-min Rain = 0
KVA1 130250Z 11003KT 32/04 A30 RMK A01 T03230039  RH  017%=      5-min Rain = 0
KVA1 130251Z 10003KT 32/04 A30 RMK A01 T03220039  RH  017%=      5-min Rain = 0
KVA1 130252Z 10003KT 32/04 A30 RMK A01 T03220039  RH  017%=      5-min Rain = 0
KVA1 130253Z 11003KT 32/04 A30 RMK A01 T03210038  RH  017%=      5-min Rain = 0
KVA1 130254Z 10003KT 32/04 A30 RMK A01 T03210038  RH  017%=      5-min Rain = 0
KVA1 130255Z 10003KT 32/04 A30 RMK A01 T03210038  RH  017%=      5-min Rain = 0
KVA1 130256Z 10003KT 32/04 A30 RMK A01 T03200038  RH  017%=      5-min Rain = 0
KVA1 130257Z 11003KT 32/04 A30 RMK A01 T03200038  RH  017%=      5-min Rain = 0
KVA1 130258Z 10003KT 32/04 A30 RMK A01 T03190038  RH  017%=      5-min Rain = 0
KVA1 130259Z 11003KT 32/04 A30 RMK A01 T03190038  RH  017%=      5-min Rain = 0
KVA1 130300Z 11003KT 32/04 A30 RMK A01 T03180038  RH  017%=      5-min Rain = 0
KVA1 130301Z 11003KT 32/04 A30 RMK A01 T03180038  RH  017%=      5-min Rain = 0
KVA1 130302Z 11003KT 32/04 A30 RMK A01 T03180039  RH  017%=      5-min Rain = 0
KVA1 130303Z 10003KT 32/04 A30 RMK A01 T03180039  RH  017%=      5-min Rain = 0
KVA1 130304Z 10003KT 32/04 A3001 RMK A01 T03170039  RH  017%=      5-min Rain = 0
KVA1 130305Z 09003KT 32/04 A3001 RMK A01 T03170039  RH  017%=      5-min Rain = 0
KVA1 130306Z 09003KT 32/04 A3001 RMK A01 T03170039  RH  017%=      5-min Rain = 0
KVA1 130307Z 09003KT 32/04 A3001 RMK A01 T03170039  RH  017%=      5-min Rain = 0
KVA1 130308Z 09003KT 32/04 A3001 RMK A01 T03170039  RH  017%=      5-min Rain = 0
KVA1 130309Z 09003KT 32/04 A3001 RMK A01 T03170039  RH  017%=      5-min Rain = 0
KVA1 130310Z 09003KT 32/04 A3001 RMK A01 T03170039  RH  017%=      5-min Rain = 0
KVA1 130311Z 09003KT 32/04 A3001 RMK A01 T03160039  RH  017%=      5-min Rain = 0
KVA1 130312Z 09002KT 32/04 A3001 RMK A01 T03160039  RH  017%=      5-min Rain = 0
KVA1 130313Z 09003KT 32/04 A3001 RMK A01 T03150039  RH  017%=      5-min Rain = 0
KVA1 130314Z 10003KT 31/04 A3001 RMK A01 T03140039  RH  018%=      5-min Rain = 0
KVA1 130315Z 10002KT 31/04 A3001 RMK A01 T03140039  RH  018%=      5-min Rain = 0
KVA1 130316Z 09002KT 31/04 A3001 RMK A01 T03130039  RH  018%=      5-min Rain = 0
KVA1 130317Z 09002KT 31/04 A3001 RMK A01 T03110038  RH  018%=      5-min Rain = 0
KVA1 130318Z 08002KT 31/04 A3001 RMK A01 T03090038  RH  018%=      5-min Rain = 0
KVA1 130319Z 08002KT 31/04 A3001 RMK A01 T03080038  RH  018%=      5-min Rain = 0
KVA1 130320Z 08002KT 31/04 A3001 RMK A01 T03070037  RH  018%=      5-min Rain = 0
KVA1 130321Z 07002KT 31/04 A3001 RMK A01 T03050036  RH  018%=      5-min Rain = 0
KVA1 130322Z 07002KT 30/04 A3001 RMK A01 T03020035  RH  018%=      5-min Rain = 0
KVA1 130323Z 07002KT 30/04 A3001 RMK A01 T03000036  RH  019%=      5-min Rain = 0
KVA1 130324Z 07002KT 30/04 A3001 RMK A01 T02980036  RH  019%=      5-min Rain = 0
KVA1 130325Z 06002KT 30/04 A3001 RMK A01 T02970036  RH  019%=      5-min Rain = 0
KVA1 130326Z 05001KT 30/04 A3002 RMK A01 T02960035  RH  019%=      5-min Rain = 0
KVA1 130327Z 05001KT 29/04 A3002 RMK A01 T02940035  RH  019%=      5-min Rain = 0
KVA1 130328Z 05001KT 29/04 A3002 RMK A01 T02930036  RH  019%=      5-min Rain = 0
KVA1 130329Z 05001KT 29/04 A3002 RMK A01 T02920036  RH  019%=      5-min Rain = 0
KVA1 130330Z 05001KT 29/04 A3002 RMK A01 T02920036  RH  020%=      5-min Rain = 0
KVA1 130331Z 07000KT 29/04 A3002 RMK A01 T02910036  RH  020%=      5-min Rain = 0
KVA1 130332Z 07000KT 29/04 A3002 RMK A01 T02910037  RH  020%=      5-min Rain = 0
KVA1 130333Z 06000KT 29/04 A3002 RMK A01 T02920037  RH  020%=      5-min Rain = 0
KVA1 130334Z 05000KT 29/04 A3002 RMK A01 T02930037  RH  020%=      5-min Rain = 0
KVA1 130335Z 04000KT 29/04 A3002 RMK A01 T02940037  RH  020%=      5-min Rain = 0
KVA1 130336Z 00000KT 29/04 A3002 RMK A01 T02940038  RH  020%=      5-min Rain = 0
KVA1 130337Z 00000KT 29/04 A3002 RMK A01 T02940038  RH  020%=      5-min Rain = 0
KVA1 130338Z 00000KT 30/04 A3002 RMK A01 T02950039  RH  020%=      5-min Rain = 0
KVA1 130339Z 00000KT 30/04 A3002 RMK A01 T02960039  RH  019%=      5-min Rain = 0
KVA1 130340Z 00000KT 30/04 A3002 RMK A01 T02970038  RH  019%=      5-min Rain = 0
KVA1 130341Z 15000KT 30/04 A3002 RMK A01 T02960038  RH  019%=      5-min Rain = 0
KVA1 130342Z 11000KT 30/04 A3002 RMK A01 T02960038  RH  019%=      5-min Rain = 0
KVA1 130343Z 14001KT 30/04 A3003 RMK A01 T02960039  RH  019%=      5-min Rain = 0
KVA1 130344Z 13002KT 30/04 A3003 RMK A01 T02960040  RH  020%=      5-min Rain = 0
KVA1 130345Z 12002KT 30/04 A3003 RMK A01 T02960040  RH  020%=      5-min Rain = 0
KVA1 130346Z 12002KT 30/04 A3003 RMK A01 T02960040  RH  020%=      5-min Rain = 0
KVA1 130347Z 14003KT 30/04 A3003 RMK A01 T02960040  RH  020%=      5-min Rain = 0
KVA1 130348Z 15003KT 30/04 A3003 RMK A01 T02960041  RH  020%=      5-min Rain = 0
KVA1 130349Z 16005KT 30/04 A3003 RMK A01 T02960042  RH  020%=      5-min Rain = 0
KVA1 130350Z 16006KT 30/05 A3003 RMK A01 T02980047  RH  020%=      5-min Rain = 0
KVA1 130351Z 17006KT 30/05 A3003 RMK A01 T03020050  RH  020%=      5-min Rain = 0
KVA1 130352Z 21005KT 31/05 A3003 RMK A01 T03060052  RH  020%=      5-min Rain = 0
KVA1 130353Z 21004KT 31/05 A3004 RMK A01 T03110052  RH  020%=      5-min Rain = 0
KVA1 130354Z 24005KT 31/05 A3004 RMK A01 T03130049  RH  019%=      5-min Rain = 0
KVA1 130355Z 24005KT 31/05 A3004 RMK A01 T03140047  RH  019%=      5-min Rain = 0
KVA1 130356Z 24005KT 31/05 A3004 RMK A01 T03140047  RH  019%=      5-min Rain = 0
KVA1 130357Z 24004KT 31/05 A3004 RMK A01 T03130046  RH  019%=      5-min Rain = 0
KVA1 130358Z 24005KT 31/05 A3004 RMK A01 T03110046  RH  019%=      5-min Rain = 0
KVA1 130359Z 24004KT 31/05 A3004 RMK A01 T03110046  RH  019%=      5-min Rain = 0
KVA1 130400Z 24004KT 31/05 A3004 RMK A01 T03100046  RH  019%=      5-min Rain = 0
KVA1 130401Z 22003KT 31/05 A3004 RMK A01 T03090047  RH  019%=      5-min Rain = 0
KVA1 130402Z 19003KT 31/05 A3004 RMK A01 T03100050  RH  019%=      5-min Rain = 0
KVA1 130403Z 18004KT 31/06 A3004 RMK A01 T03120055  RH  020%=      5-min Rain = 0
KVA1 130404Z 16006KT 32/06 A3004 RMK A01 T03150058  RH  020%=      5-min Rain = 0
KVA1 130405Z 16009KT 32/06 A3004 RMK A01 T03180061  RH  020%=      5-min Rain = 0
KVA1 130406Z 17007KT 32/07 A3004 RMK A01 T03220065  RH  020%=      5-min Rain = 0
KVA1 130407Z 17007KT 33/07 A3004 RMK A01 T03250065  RH  020%=      5-min Rain = 0
KVA1 130408Z 17007KT 33/07 A3004 RMK A01 T03270065  RH  020%=      5-min Rain = 0
KVA1 130409Z 17006KT 33/07 A3004 RMK A01 T03280065  RH  019%=      5-min Rain = 0
KVA1 130410Z 18006KT 33/07 A3004 RMK A01 T03280065  RH  019%=      5-min Rain = 0
KVA1 130411Z 18006KT 33/06 A3004 RMK A01 T03280064  RH  019%=      5-min Rain = 0
KVA1 130412Z 17006KT 33/07 A3004 RMK A01 T03280065  RH  019%=      5-min Rain = 0
KVA1 130413Z 17007KT 33/07 A3004 RMK A01 T03280065  RH  020%=      5-min Rain = 0
KVA1 130414Z 18007KT 33/07 A3004 RMK A01 T03280065  RH  020%=      5-min Rain = 0
KVA1 130415Z 17006KT 33/07 A3004 RMK A01 T03280066  RH  020%=      5-min Rain = 0
KVA1 130416Z 18006KT 33/07 A3004 RMK A01 T03280066  RH  020%=      5-min Rain = 0
KVA1 130417Z 18006KT 33/07 A3004 RMK A01 T03280067  RH  020%=      5-min Rain = 0
KVA1 130418Z 18007KT 33/07 A3004 RMK A01 T03270067  RH  020%=      5-min Rain = 0
KVA1 130419Z 18008KT 33/07 A3004 RMK A01 T03270067  RH  020%=      5-min Rain = 0
KVA1 130420Z 18009KT 33/07 A3004 RMK A01 T03260068  RH  020%=      5-min Rain = 0
KVA1 130421Z 17009KT 33/07 A3004 RMK A01 T03270069  RH  020%=      5-min Rain = 0
KVA1 130422Z 18008KT 33/07 A3004 RMK A01 T03270069  RH  020%=      5-min Rain = 0
KVA1 130423Z 17009KT 33/07 A3004 RMK A01 T03270069  RH  020%=      5-min Rain = 0
KVA1 130424Z 17009KT 33/07 A3004 RMK A01 T03270069  RH  020%=      5-min Rain = 0
KVA1 130425Z 18008KT 33/07 A3004 RMK A01 T03270070  RH  020%=      5-min Rain = 0
KVA1 130426Z 17007KT 33/07 A3004 RMK A01 T03260070  RH  020%=      5-min Rain = 0
KVA1 130427Z 18008KT 33/07 A3004 RMK A01 T03260070  RH  020%=      5-min Rain = 0
KVA1 130428Z 18007KT 33/07 A3004 RMK A01 T03270071  RH  020%=      5-min Rain = 0
KVA1 130429Z 17008KT 33/07 A3004 RMK A01 T03270071  RH  020%=      5-min Rain = 0
KVA1 130430Z 18007KT 33/07 A3004 RMK A01 T03260071  RH  021%=      5-min Rain = 0
KVA1 130431Z 17008G13KT 33/07 A3004 RMK A01 T03250072  RH  021%=      5-min Rain = 0
KVA1 130432Z 18009KT 33/07 A3004 RMK A01 T03250073  RH  021%=      5-min Rain = 0
KVA1 130433Z 17009KT 33/07 A3004 RMK A01 T03250073  RH  021%=      5-min Rain = 0
KVA1 130434Z 17009KT 33/07 A3004 RMK A01 T03250074  RH  021%=      5-min Rain = 0
KVA1 130435Z 17009KT 33/08 A3004 RMK A01 T03260075  RH  021%=      5-min Rain = 0
KVA1 130436Z 17011KT 33/08 A3004 RMK A01 T03260075  RH  021%=      5-min Rain = 0
KVA1 130437Z 17010KT 33/08 A3004 RMK A01 T03270077  RH  021%=      5-min Rain = 0
KVA1 130438Z 17011KT 33/08 A3004 RMK A01 T03270078  RH  021%=      5-min Rain = 0
KVA1 130439Z 17011KT 33/08 A3004 RMK A01 T03270079  RH  021%=      5-min Rain = 0
KVA1 130440Z 16011KT 33/08 A3004 RMK A01 T03280079  RH  022%=      5-min Rain = 0
KVA1 130441Z 17010KT 33/08 A3004 RMK A01 T03280080  RH  022%=      5-min Rain = 0
KVA1 130442Z 18009KT 33/08 A3004 RMK A01 T03280080  RH  022%=      5-min Rain = 0
KVA1 130443Z 17008KT 33/08 A3004 RMK A01 T03270080  RH  022%=      5-min Rain = 0
KVA1 130444Z 18010KT 33/08 A3004 RMK A01 T03260080  RH  022%=      5-min Rain = 0
KVA1 130445Z 17008KT 33/08 A3004 RMK A01 T03260081  RH  022%=      5-min Rain = 0
KVA1 130446Z 19006KT 33/08 A3004 RMK A01 T03260081  RH  022%=      5-min Rain = 0
KVA1 130447Z 18007KT 32/08 A3004 RMK A01 T03240080  RH  022%=      5-min Rain = 0
KVA1 130448Z 19007KT 32/08 A3004 RMK A01 T03240081  RH  022%=      5-min Rain = 0
KVA1 130449Z 19007KT 32/08 A3004 RMK A01 T03230082  RH  022%=      5-min Rain = 0
KVA1 130450Z 20006KT 32/08 A3004 RMK A01 T03220081  RH  022%=      5-min Rain = 0
KVA1 130451Z 19007KT 32/08 A3004 RMK A01 T03220082  RH  023%=      5-min Rain = 0
KVA1 130452Z 20008KT 32/08 A3004 RMK A01 T03210082  RH  023%=      5-min Rain = 0
KVA1 130453Z 20008KT 32/08 A3004 RMK A01 T03200081  RH  023%=      5-min Rain = 0
KVA1 130454Z 21006KT 32/08 A3004 RMK A01 T03200081  RH  023%=      5-min Rain = 0
KVA1 130455Z 20007KT 32/08 A3004 RMK A01 T03180080  RH  023%=      5-min Rain = 0
KVA1 130456Z 19009KT 32/08 A3004 RMK A01 T03170081  RH  023%=      5-min Rain = 0
KVA1 130457Z 19008KT 32/08 A3004 RMK A01 T03160081  RH  023%=      5-min Rain = 0
KVA1 130458Z 20008KT 32/08 A3004 RMK A01 T03150080  RH  023%=      5-min Rain = 0
KVA1 130459Z 19009KT 31/08 A3004 RMK A01 T03140081  RH  023%=      5-min Rain = 0

Page generated in 0.0936 seconds.